Time,TemperatureF,DewpointF,PressureIn,WindDirection,WindDirectionDegrees,WindSpeedMPH,WindSpeedGustMPH,Humidity,HourlyPrecipIn,Conditions,Clouds,dailyrainin,SoftwareType,DateUTC
2013-01-17 00:00:00,29.4,28.1,29.82,SW,214,0.0,0.0,95,0.00,,---,0.00,VWS V14.01,2013-01-17 05:00:00,
2013-01-17 00:01:00,29.4,28.1,29.82,SW,214,0.0,0.0,95,0.00,,---,0.00,VWS V14.01,2013-01-17 05:01:00,
2013-01-17 00:03:00,29.4,27.9,29.82,SW,215,0.0,0.0,94,0.00,,---,0.00,VWS V14.01,2013-01-17 05:03:00,
2013-01-17 00:05:00,29.3,27.8,29.82,SW,215,0.0,0.0,94,0.00,,---,0.00,VWS V14.01,2013-01-17 05:05:00,
2013-01-17 00:07:00,29.3,27.8,29.82,SW,215,0.0,0.0,94,0.00,,---,0.00,VWS V14.01,2013-01-17 05:07:00,
2013-01-17 00:08:00,29.2,27.7,29.82,SW,215,0.0,0.0,94,0.00,,---,0.00,VWS V14.01,2013-01-17 05:08:00,
2013-01-17 00:10:00,29.2,27.7,29.82,SW,215,0.0,0.0,94,0.00,,---,0.00,VWS V14.01,2013-01-17 05:10:00,
2013-01-17 00:11:00,29.2,27.7,29.82,SW,215,0.0,0.0,94,0.00,,---,0.00,VWS V14.01,2013-01-17 05:11:00,
2013-01-17 00:12:00,29.2,27.7,29.82,SW,215,0.0,0.0,94,0.00,,---,0.00,VWS V14.01,2013-01-17 05:12:00,
2013-01-17 00:14:00,29.2,27.7,29.82,SW,215,0.0,0.0,94,0.00,,---,0.00,VWS V14.01,2013-01-17 05:14:00,
2013-01-17 00:16:00,29.1,27.6,29.82,SW,215,0.0,0.0,94,0.00,,---,0.00,VWS V14.01,2013-01-17 05:16:00,
2013-01-17 00:17:00,29.0,27.5,29.82,SW,215,0.0,0.0,94,0.00,,---,0.00,VWS V14.01,2013-01-17 05:17:00,
2013-01-17 00:20:00,28.8,27.3,29.82,SW,215,0.0,0.0,94,0.00,,---,0.00,VWS V14.01,2013-01-17 05:20:00,
2013-01-17 00:21:00,28.8,27.3,29.82,WSW,246,0.0,0.0,94,0.00,,---,0.00,VWS V14.01,2013-01-17 05:21:00,
2013-01-17 00:22:00,28.7,27.2,29.82,WSW,246,0.0,0.0,94,0.00,,---,0.00,VWS V14.01,2013-01-17 05:22:00,
2013-01-17 00:23:00,28.6,27.1,29.82,WSW,246,0.0,0.0,94,0.00,,---,0.00,VWS V14.01,2013-01-17 05:23:00,
2013-01-17 00:26:00,28.6,27.1,29.82,NW,307,0.0,0.0,94,0.00,,---,0.00,VWS V14.01,2013-01-17 05:26:00,
2013-01-17 00:27:00,28.6,27.1,29.82,WNW,284,0.0,0.0,94,0.00,,---,0.00,VWS V14.01,2013-01-17 05:27:00,
2013-01-17 00:28:00,28.6,27.4,29.82,West,262,0.0,0.0,95,0.00,,---,0.00,VWS V14.01,2013-01-17 05:28:00,
2013-01-17 00:32:00,28.6,27.4,29.82,SW,226,0.0,0.0,95,0.00,,---,0.00,VWS V14.01,2013-01-17 05:32:00,
2013-01-17 00:34:00,28.6,27.4,29.82,WSW,254,0.0,0.0,95,0.00,,---,0.00,VWS V14.01,2013-01-17 05:34:00,
2013-01-17 00:37:00,28.8,27.5,29.82,WSW,249,0.0,2.0,95,0.00,,---,0.00,VWS V14.01,2013-01-17 05:37:00,
2013-01-17 00:39:00,28.9,27.6,29.82,West,259,0.0,2.0,95,0.00,,---,0.00,VWS V14.01,2013-01-17 05:39:00,
2013-01-17 00:40:00,29.0,27.8,29.82,WSW,245,0.0,2.0,95,0.00,,---,0.00,VWS V14.01,2013-01-17 05:40:00,
2013-01-17 00:42:00,29.2,28.0,29.82,WSW,254,1.0,2.0,95,0.00,,---,0.00,VWS V14.01,2013-01-17 05:42:00,
2013-01-17 00:43:00,29.2,28.0,29.82,WSW,257,0.0,2.0,95,0.00,,---,0.00,VWS V14.01,2013-01-17 05:43:00,
2013-01-17 00:44:00,29.3,28.0,29.82,WSW,255,0.0,2.0,95,0.00,,---,0.00,VWS V14.01,2013-01-17 05:44:00,
2013-01-17 00:45:00,29.3,28.0,29.82,WSW,249,0.0,2.0,95,0.00,,---,0.00,VWS V14.01,2013-01-17 05:45:00,
2013-01-17 00:48:00,29.5,28.0,29.82,West,264,1.0,2.0,94,0.00,,---,0.00,VWS V14.01,2013-01-17 05:48:00,
2013-01-17 00:49:00,29.6,28.1,29.82,West,263,0.0,2.0,94,0.00,,---,0.00,VWS V14.01,2013-01-17 05:49:00,
2013-01-17 00:50:00,29.7,28.2,29.83,WSW,249,1.0,2.0,94,0.00,,---,0.00,VWS V14.01,2013-01-17 05:50:00,
2013-01-17 00:53:00,29.8,28.3,29.82,West,269,1.0,2.0,94,0.00,,---,0.00,VWS V14.01,2013-01-17 05:53:00,
2013-01-17 00:55:00,29.8,28.0,29.82,West,260,1.0,2.0,93,0.00,,---,0.00,VWS V14.01,2013-01-17 05:55:00,
2013-01-17 00:56:00,29.9,28.1,29.82,West,278,0.0,2.0,93,0.00,,---,0.00,VWS V14.01,2013-01-17 05:56:00,
2013-01-17 00:58:00,30.0,28.2,29.82,West,267,0.0,2.0,93,0.00,,---,0.00,VWS V14.01,2013-01-17 05:58:00,
2013-01-17 01:00:00,30.0,28.2,29.82,West,269,0.0,2.0,93,0.00,,---,0.00,VWS V14.01,2013-01-17 06:00:00,
2013-01-17 01:01:00,30.0,28.2,29.82,WSW,242,0.0,1.0,93,0.00,,---,0.00,VWS V14.01,2013-01-17 06:01:00,
2013-01-17 01:03:00,30.1,28.3,29.82,WSW,251,1.0,1.0,93,0.00,,---,0.00,VWS V14.01,2013-01-17 06:03:00,
2013-01-17 01:05:00,30.1,28.3,29.83,WSW,249,0.0,1.0,93,0.00,,---,0.00,VWS V14.01,2013-01-17 06:05:00,
2013-01-17 01:06:00,30.1,28.3,29.83,West,264,0.0,1.0,93,0.00,,---,0.00,VWS V14.01,2013-01-17 06:06:00,
2013-01-17 01:09:00,30.1,28.1,29.83,WNW,290,0.0,1.0,92,0.00,,---,0.00,VWS V14.01,2013-01-17 06:09:00,
2013-01-17 01:11:00,30.1,28.1,29.83,West,267,1.0,1.0,92,0.00,,---,0.00,VWS V14.01,2013-01-17 06:11:00,
2013-01-17 01:12:00,30.1,28.1,29.83,WSW,239,1.0,1.0,92,0.00,,---,0.00,VWS V14.01,2013-01-17 06:12:00,
2013-01-17 01:14:00,30.1,28.1,29.83,WNW,285,1.0,2.0,92,0.00,,---,0.00,VWS V14.01,2013-01-17 06:14:00,
2013-01-17 01:16:00,30.2,28.2,29.83,West,262,1.0,2.0,92,0.00,,---,0.00,VWS V14.01,2013-01-17 06:16:00,
2013-01-17 01:17:00,30.2,28.2,29.83,West,264,1.0,2.0,92,0.00,,---,0.00,VWS V14.01,2013-01-17 06:17:00,
2013-01-17 01:18:00,30.2,28.2,29.83,SW,233,1.0,2.0,92,0.00,,---,0.00,VWS V14.01,2013-01-17 06:18:00,
2013-01-17 01:19:00,30.2,28.2,29.83,NW,308,0.0,3.0,92,0.00,,---,0.00,VWS V14.01,2013-01-17 06:19:00,
2013-01-17 01:22:00,30.2,28.2,29.83,SW,219,0.0,3.0,92,0.00,,---,0.00,VWS V14.01,2013-01-17 06:22:00,
2013-01-17 01:23:00,30.2,28.2,29.83,WSW,249,0.0,3.0,92,0.00,,---,0.00,VWS V14.01,2013-01-17 06:23:00,
2013-01-17 01:24:00,30.2,28.2,29.83,West,266,0.0,3.0,92,0.00,,---,0.00,VWS V14.01,2013-01-17 06:24:00,
2013-01-17 01:29:00,30.1,28.1,29.83,WSW,249,0.0,3.0,92,0.00,,---,0.00,VWS V14.01,2013-01-17 06:29:00,
2013-01-17 01:30:00,30.1,28.1,29.83,West,267,1.0,1.0,92,0.00,,---,0.00,VWS V14.01,2013-01-17 06:30:00,
2013-01-17 01:35:00,30.1,28.1,29.83,West,262,1.0,2.0,92,0.00,,---,0.00,VWS V14.01,2013-01-17 06:35:00,
2013-01-17 01:36:00,30.2,28.2,29.83,West,281,0.0,2.0,92,0.00,,---,0.00,VWS V14.01,2013-01-17 06:36:00,
2013-01-17 01:40:00,30.2,28.2,29.83,SW,219,0.0,2.0,92,0.00,,---,0.00,VWS V14.01,2013-01-17 06:40:00,
2013-01-17 01:41:00,30.2,28.2,29.83,SW,233,1.0,2.0,92,0.00,,---,0.00,VWS V14.01,2013-01-17 06:41:00,
2013-01-17 01:45:00,30.2,28.2,29.83,WSW,255,0.0,2.0,92,0.00,,---,0.00,VWS V14.01,2013-01-17 06:45:00,
2013-01-17 01:46:00,30.2,28.2,29.83,WNW,294,1.0,2.0,92,0.00,,---,0.00,VWS V14.01,2013-01-17 06:46:00,
2013-01-17 01:47:00,30.2,28.2,29.83,West,260,0.0,2.0,92,0.00,,---,0.00,VWS V14.01,2013-01-17 06:47:00,
2013-01-17 01:51:00,30.1,28.1,29.83,WSW,249,1.0,2.0,92,0.00,,---,0.00,VWS V14.01,2013-01-17 06:51:00,
2013-01-17 01:52:00,30.1,28.1,29.83,WSW,238,1.0,2.0,92,0.00,,---,0.00,VWS V14.01,2013-01-17 06:52:00,
2013-01-17 01:53:00,30.1,28.1,29.83,West,259,2.0,2.0,92,0.00,,---,0.00,VWS V14.01,2013-01-17 06:53:00,
2013-01-17 01:56:00,30.0,28.0,29.84,WSW,255,0.0,2.0,92,0.00,,---,0.00,VWS V14.01,2013-01-17 06:56:00,
2013-01-17 01:58:00,30.0,28.0,29.84,WSW,257,0.0,2.0,92,0.00,,---,0.00,VWS V14.01,2013-01-17 06:58:00,
2013-01-17 01:59:00,30.0,28.0,29.84,SW,222,1.0,2.0,92,0.00,,---,0.00,VWS V14.01,2013-01-17 06:59:00,
2013-01-17 02:01:00,29.9,27.9,29.84,SW,229,2.0,2.0,92,0.00,,---,0.00,VWS V14.01,2013-01-17 07:01:00,
2013-01-17 02:03:00,29.9,27.9,29.84,WSW,245,0.0,2.0,92,0.00,,---,0.00,VWS V14.01,2013-01-17 07:03:00,
2013-01-17 02:04:00,29.9,27.9,29.84,WSW,257,1.0,2.0,92,0.00,,---,0.00,VWS V14.01,2013-01-17 07:04:00,
2013-01-17 02:08:00,29.9,27.9,29.84,West,269,1.0,2.0,92,0.00,,---,0.00,VWS V14.01,2013-01-17 07:08:00,
2013-01-17 02:09:00,30.0,28.0,29.84,West,260,0.0,2.0,92,0.00,,---,0.00,VWS V14.01,2013-01-17 07:09:00,
2013-01-17 02:13:00,30.2,28.2,29.84,WSW,245,1.0,2.0,92,0.00,,---,0.00,VWS V14.01,2013-01-17 07:13:00,
2013-01-17 02:14:00,30.3,28.3,29.84,SW,226,2.0,2.0,92,0.00,,---,0.00,VWS V14.01,2013-01-17 07:14:00,
2013-01-17 02:15:00,30.3,28.3,29.85,WSW,251,1.0,2.0,92,0.00,,---,0.00,VWS V14.01,2013-01-17 07:15:00,
2013-01-17 02:19:00,30.5,28.2,29.85,WSW,252,2.0,2.0,91,0.00,,---,0.00,VWS V14.01,2013-01-17 07:19:00,
2013-01-17 02:20:00,30.6,28.3,29.85,WSW,258,1.0,2.0,91,0.00,,---,0.00,VWS V14.01,2013-01-17 07:20:00,
2013-01-17 02:21:00,30.7,28.4,29.85,West,264,1.0,2.0,91,0.00,,---,0.00,VWS V14.01,2013-01-17 07:21:00,
2013-01-17 02:25:00,30.8,28.2,29.85,West,271,1.0,2.0,90,0.00,,---,0.00,VWS V14.01,2013-01-17 07:25:00,
2013-01-17 02:26:00,30.8,28.2,29.85,SW,236,1.0,2.0,90,0.00,,---,0.00,VWS V14.01,2013-01-17 07:26:00,
2013-01-17 02:30:00,30.8,28.0,29.84,WSW,250,1.0,1.0,89,0.00,,---,0.00,VWS V14.01,2013-01-17 07:30:00,
2013-01-17 02:31:00,30.8,28.0,29.84,West,269,1.0,2.0,89,0.00,,---,0.00,VWS V14.01,2013-01-17 07:31:00,
2013-01-17 02:35:00,30.8,28.2,29.84,West,266,1.0,2.0,90,0.00,,---,0.00,VWS V14.01,2013-01-17 07:35:00,
2013-01-17 02:36:00,30.8,28.0,29.84,SW,226,1.0,2.0,89,0.00,,---,0.00,VWS V14.01,2013-01-17 07:36:00,
2013-01-17 02:37:00,30.8,28.0,29.84,WSW,257,1.0,2.0,89,0.00,,---,0.00,VWS V14.01,2013-01-17 07:37:00,
2013-01-17 02:41:00,30.9,28.0,29.84,WSW,250,2.0,3.0,89,0.00,,---,0.00,VWS V14.01,2013-01-17 07:41:00,
2013-01-17 02:42:00,30.9,28.0,29.84,WSW,246,1.0,3.0,89,0.00,,---,0.00,VWS V14.01,2013-01-17 07:42:00,
2013-01-17 02:46:00,30.8,28.0,29.83,SW,233,1.0,3.0,89,0.00,,---,0.00,VWS V14.01,2013-01-17 07:46:00,
2013-01-17 02:47:00,30.8,28.0,29.84,West,266,1.0,3.0,89,0.00,,---,0.00,VWS V14.01,2013-01-17 07:47:00,
2013-01-17 02:48:00,30.8,28.0,29.84,WSW,249,1.0,3.0,89,0.00,,---,0.00,VWS V14.01,2013-01-17 07:48:00,
2013-01-17 02:51:00,30.8,28.2,29.84,WSW,253,1.0,3.0,90,0.00,,---,0.00,VWS V14.01,2013-01-17 07:51:00,
2013-01-17 02:52:00,30.8,28.2,29.84,WNW,291,0.0,3.0,90,0.00,,---,0.00,VWS V14.01,2013-01-17 07:52:00,
2013-01-17 02:53:00,30.7,27.9,29.84,West,264,1.0,3.0,89,0.00,,---,0.00,VWS V14.01,2013-01-17 07:53:00,
2013-01-17 02:57:00,30.7,27.9,29.84,West,267,1.0,3.0,89,0.00,,---,0.00,VWS V14.01,2013-01-17 07:57:00,
2013-01-17 02:58:00,30.6,27.8,29.84,SW,236,1.0,3.0,89,0.00,,---,0.00,VWS V14.01,2013-01-17 07:58:00,
2013-01-17 03:02:00,30.7,28.1,29.83,West,263,2.0,2.0,90,0.00,,---,0.00,VWS V14.01,2013-01-17 08:02:00,
2013-01-17 03:03:00,30.8,28.2,29.83,West,259,1.0,3.0,90,0.00,,---,0.00,VWS V14.01,2013-01-17 08:03:00,
2013-01-17 03:04:00,30.8,28.0,29.83,West,266,2.0,3.0,89,0.00,,---,0.00,VWS V14.01,2013-01-17 08:04:00,
2013-01-17 03:08:00,30.8,28.0,29.83,West,264,1.0,3.0,89,0.00,,---,0.00,VWS V14.01,2013-01-17 08:08:00,
2013-01-17 03:09:00,30.8,28.0,29.83,WSW,246,2.0,3.0,89,0.00,,---,0.00,VWS V14.01,2013-01-17 08:09:00,
2013-01-17 03:10:00,30.9,28.0,29.83,West,269,1.0,3.0,89,0.00,,---,0.00,VWS V14.01,2013-01-17 08:10:00,
2013-01-17 03:13:00,31.0,27.9,29.83,West,266,1.0,3.0,88,0.00,,---,0.00,VWS V14.01,2013-01-17 08:13:00,
2013-01-17 03:14:00,31.0,27.9,29.83,West,262,0.0,3.0,88,0.00,,---,0.00,VWS V14.01,2013-01-17 08:14:00,
2013-01-17 03:15:00,31.0,27.9,29.83,WSW,257,2.0,3.0,88,0.00,,---,0.00,VWS V14.01,2013-01-17 08:15:00,
2013-01-17 03:19:00,31.2,28.1,29.82,West,259,1.0,3.0,88,0.00,,---,0.00,VWS V14.01,2013-01-17 08:19:00,
2013-01-17 03:20:00,31.2,28.1,29.82,WSW,239,1.0,3.0,88,0.00,,---,0.00,VWS V14.01,2013-01-17 08:20:00,
2013-01-17 03:21:00,31.2,27.8,29.82,WNW,288,0.0,3.0,87,0.00,,---,0.00,VWS V14.01,2013-01-17 08:21:00,
2013-01-17 03:25:00,31.4,28.0,29.82,West,267,1.0,3.0,87,0.00,,---,0.00,VWS V14.01,2013-01-17 08:25:00,
2013-01-17 03:26:00,31.5,28.1,29.82,WNW,283,1.0,3.0,87,0.00,,---,0.00,VWS V14.01,2013-01-17 08:26:00,
2013-01-17 03:30:00,31.7,28.0,29.82,West,264,1.0,2.0,86,0.00,,---,0.00,VWS V14.01,2013-01-17 08:30:00,
2013-01-17 03:31:00,31.7,28.0,29.82,WSW,240,3.0,3.0,86,0.00,,---,0.00,VWS V14.01,2013-01-17 08:31:00,
2013-01-17 03:36:00,31.7,28.0,29.82,West,269,0.0,3.0,86,0.00,,---,0.00,VWS V14.01,2013-01-17 08:36:00,
2013-01-17 03:37:00,31.7,28.0,29.82,West,274,0.0,3.0,86,0.00,,---,0.00,VWS V14.01,2013-01-17 08:37:00,
2013-01-17 03:38:00,31.7,28.0,29.82,WNW,286,1.0,3.0,86,0.00,,---,0.00,VWS V14.01,2013-01-17 08:38:00,
2013-01-17 03:42:00,31.7,28.0,29.82,WSW,238,0.0,3.0,86,0.00,,---,0.00,VWS V14.01,2013-01-17 08:42:00,
2013-01-17 03:43:00,31.8,28.1,29.82,West,262,1.0,3.0,86,0.00,,---,0.00,VWS V14.01,2013-01-17 08:43:00,
2013-01-17 03:44:00,31.8,28.1,29.82,WSW,253,2.0,3.0,86,0.00,,---,0.00,VWS V14.01,2013-01-17 08:44:00,
2013-01-17 03:47:00,31.8,27.8,29.82,WSW,249,0.0,3.0,85,0.00,,---,0.00,VWS V14.01,2013-01-17 08:47:00,
2013-01-17 03:48:00,31.8,27.8,29.82,SW,226,3.0,3.0,85,0.00,,---,0.00,VWS V14.01,2013-01-17 08:48:00,
2013-01-17 03:49:00,31.8,27.8,29.82,West,267,0.0,3.0,85,0.00,,---,0.00,VWS V14.01,2013-01-17 08:49:00,
2013-01-17 03:53:00,31.9,27.9,29.82,SW,235,1.0,3.0,85,0.00,,---,0.00,VWS V14.01,2013-01-17 08:53:00,
2013-01-17 03:55:00,31.9,27.9,29.82,SW,227,1.0,3.0,85,0.00,,---,0.00,VWS V14.01,2013-01-17 08:55:00,
2013-01-17 03:58:00,31.9,27.9,29.82,West,266,1.0,3.0,85,0.00,,---,0.00,VWS V14.01,2013-01-17 08:58:00,
2013-01-17 03:59:00,31.9,27.9,29.82,West,261,1.0,3.0,85,0.00,,---,0.00,VWS V14.01,2013-01-17 08:59:00,
2013-01-17 04:00:00,31.9,27.9,29.81,WSW,245,0.0,1.0,85,0.00,,---,0.00,VWS V14.01,2013-01-17 09:00:00,
2013-01-17 04:01:00,31.9,27.9,29.82,West,260,1.0,2.0,85,0.00,,---,0.00,VWS V14.01,2013-01-17 09:01:00,
2013-01-17 04:04:00,31.9,27.9,29.82,West,262,1.0,2.0,85,0.00,,---,0.00,VWS V14.01,2013-01-17 09:04:00,
2013-01-17 04:05:00,31.9,27.9,29.82,West,273,0.0,2.0,85,0.00,,---,0.00,VWS V14.01,2013-01-17 09:05:00,
2013-01-17 04:07:00,32.0,28.0,29.82,WSW,252,1.0,2.0,85,0.00,,---,0.00,VWS V14.01,2013-01-17 09:07:00,
2013-01-17 04:10:00,32.0,28.0,29.82,WSW,250,0.0,2.0,85,0.00,,---,0.00,VWS V14.01,2013-01-17 09:10:00,
2013-01-17 04:11:00,32.0,28.0,29.82,SW,235,0.0,2.0,85,0.00,,---,0.00,VWS V14.01,2013-01-17 09:11:00,
2013-01-17 04:12:00,31.9,27.9,29.82,WSW,252,0.0,2.0,85,0.00,,---,0.00,VWS V14.01,2013-01-17 09:12:00,
2013-01-17 04:15:00,31.8,27.8,29.82,WSW,248,0.0,2.0,85,0.00,,---,0.00,VWS V14.01,2013-01-17 09:15:00,
2013-01-17 04:16:00,31.8,27.8,29.82,West,277,1.0,2.0,85,0.00,,---,0.00,VWS V14.01,2013-01-17 09:16:00,
2013-01-17 04:17:00,31.8,27.8,29.82,WSW,255,0.0,2.0,85,0.00,,---,0.00,VWS V14.01,2013-01-17 09:17:00,
2013-01-17 04:21:00,31.8,27.8,29.82,West,260,1.0,2.0,85,0.00,,---,0.00,VWS V14.01,2013-01-17 09:21:00,
2013-01-17 04:22:00,31.8,27.8,29.82,SW,229,0.0,4.0,85,0.00,,---,0.00,VWS V14.01,2013-01-17 09:22:00,
2013-01-17 04:26:00,31.9,27.6,29.82,West,276,1.0,4.0,84,0.00,,---,0.00,VWS V14.01,2013-01-17 09:26:00,
2013-01-17 04:28:00,31.9,27.9,29.82,WSW,256,1.0,4.0,85,0.00,,---,0.00,VWS V14.01,2013-01-17 09:28:00,
2013-01-17 04:31:00,31.8,27.8,29.82,West,259,0.0,1.0,85,0.00,,---,0.00,VWS V14.01,2013-01-17 09:31:00,
2013-01-17 04:33:00,31.8,27.8,29.82,WSW,238,0.0,2.0,85,0.00,,---,0.00,VWS V14.01,2013-01-17 09:33:00,
2013-01-17 04:36:00,31.7,27.7,29.83,West,262,1.0,2.0,85,0.00,,---,0.00,VWS V14.01,2013-01-17 09:36:00,
2013-01-17 04:37:00,31.7,27.7,29.83,WSW,257,1.0,2.0,85,0.00,,---,0.00,VWS V14.01,2013-01-17 09:37:00,
2013-01-17 04:40:00,31.6,27.6,29.83,SW,227,0.0,2.0,85,0.00,,---,0.00,VWS V14.01,2013-01-17 09:40:00,
2013-01-17 04:41:00,31.6,27.6,29.83,SW,233,2.0,2.0,85,0.00,,---,0.00,VWS V14.01,2013-01-17 09:41:00,
2013-01-17 04:42:00,31.5,27.5,29.83,WSW,245,0.0,2.0,85,0.00,,---,0.00,VWS V14.01,2013-01-17 09:42:00,
2013-01-17 04:45:00,31.3,27.6,29.83,WSW,257,1.0,2.0,86,0.00,,---,0.00,VWS V14.01,2013-01-17 09:45:00,
2013-01-17 04:46:00,31.3,27.6,29.83,WSW,245,0.0,2.0,86,0.00,,---,0.00,VWS V14.01,2013-01-17 09:46:00,
2013-01-17 04:47:00,31.3,27.6,29.83,SSW,198,0.0,2.0,86,0.00,,---,0.00,VWS V14.01,2013-01-17 09:47:00,
2013-01-17 04:50:00,31.2,27.5,29.83,WSW,252,0.0,2.0,86,0.00,,---,0.00,VWS V14.01,2013-01-17 09:50:00,
2013-01-17 04:52:00,31.2,27.5,29.83,WSW,252,0.0,2.0,86,0.00,,---,0.00,VWS V14.01,2013-01-17 09:52:00,
2013-01-17 04:53:00,31.2,27.5,29.83,West,267,0.0,2.0,86,0.00,,---,0.00,VWS V14.01,2013-01-17 09:53:00,
2013-01-17 04:55:00,31.3,27.6,29.83,WSW,249,1.0,2.0,86,0.00,,---,0.00,VWS V14.01,2013-01-17 09:55:00,
2013-01-17 04:57:00,31.4,27.4,29.83,West,260,0.0,2.0,85,0.00,,---,0.00,VWS V14.01,2013-01-17 09:57:00,
2013-01-17 04:58:00,31.5,27.5,29.83,WSW,246,2.0,3.0,85,0.00,,---,0.00,VWS V14.01,2013-01-17 09:58:00,
2013-01-17 04:59:00,31.5,27.5,29.83,SW,232,0.0,3.0,85,0.00,,---,0.00,VWS V14.01,2013-01-17 09:59:00,
2013-01-17 05:01:00,31.7,27.7,29.83,SW,224,0.0,1.0,85,0.00,,---,0.00,VWS V14.01,2013-01-17 10:01:00,
2013-01-17 05:02:00,31.7,27.4,29.83,West,278,1.0,1.0,84,0.00,,---,0.00,VWS V14.01,2013-01-17 10:02:00,
2013-01-17 05:03:00,31.8,27.5,29.83,SW,226,0.0,2.0,84,0.00,,---,0.00,VWS V14.01,2013-01-17 10:03:00,
2013-01-17 05:04:00,31.9,27.6,29.83,SSW,202,0.0,2.0,84,0.00,,---,0.00,VWS V14.01,2013-01-17 10:04:00,
2013-01-17 05:06:00,32.0,27.7,29.83,SSE,148,0.0,2.0,84,0.00,,---,0.00,VWS V14.01,2013-01-17 10:06:00,
2013-01-17 05:08:00,31.9,27.6,29.83,NE,39,0.0,4.0,84,0.00,,---,0.00,VWS V14.01,2013-01-17 10:08:00,
2013-01-17 05:09:00,32.0,27.7,29.83,East,101,0.0,4.0,84,0.00,,---,0.00,VWS V14.01,2013-01-17 10:09:00,
2013-01-17 05:12:00,32.2,27.6,29.83,South,177,1.0,8.0,83,0.00,,---,0.00,VWS V14.01,2013-01-17 10:12:00,
2013-01-17 05:13:00,32.3,27.7,29.83,South,189,2.0,8.0,83,0.00,,---,0.00,VWS V14.01,2013-01-17 10:13:00,
2013-01-17 05:14:00,32.4,27.5,29.83,SW,222,7.0,9.0,82,0.00,,---,0.00,VWS V14.01,2013-01-17 10:14:00,
2013-01-17 05:15:00,32.4,27.5,29.83,SSW,207,6.0,9.0,82,0.00,,---,0.00,VWS V14.01,2013-01-17 10:15:00,
2013-01-17 05:17:00,32.5,27.6,29.83,South,174,1.0,9.0,82,0.00,,---,0.00,VWS V14.01,2013-01-17 10:17:00,
2013-01-17 05:19:00,32.6,27.4,29.83,South,187,7.0,9.0,81,0.00,,---,0.00,VWS V14.01,2013-01-17 10:19:00,
2013-01-17 05:20:00,32.7,27.5,29.83,SW,227,1.0,9.0,81,0.00,,---,0.00,VWS V14.01,2013-01-17 10:20:00,
2013-01-17 05:21:00,32.6,27.7,29.83,South,170,3.0,9.0,82,0.00,,---,0.00,VWS V14.01,2013-01-17 10:21:00,
2013-01-17 05:22:00,32.6,27.7,29.83,SW,214,5.0,9.0,82,0.00,,---,0.00,VWS V14.01,2013-01-17 10:22:00,
2013-01-17 05:24:00,32.6,27.7,29.83,WSW,244,3.0,9.0,82,0.00,,---,0.00,VWS V14.01,2013-01-17 10:24:00,
2013-01-17 05:25:00,32.5,27.6,29.83,SSW,194,1.0,9.0,82,0.00,,---,0.00,VWS V14.01,2013-01-17 10:25:00,
2013-01-17 05:27:00,32.5,27.6,29.83,WSW,242,1.0,9.0,82,0.00,,---,0.00,VWS V14.01,2013-01-17 10:27:00,
2013-01-17 05:29:00,32.7,27.5,29.84,SW,215,10.0,11.0,81,0.00,,---,0.00,VWS V14.01,2013-01-17 10:29:00,
2013-01-17 05:31:00,32.8,27.6,29.84,SW,231,9.0,10.0,81,0.00,,---,0.00,VWS V14.01,2013-01-17 10:31:00,
2013-01-17 05:32:00,32.9,27.7,29.84,ENE,76,0.0,11.0,81,0.00,,---,0.00,VWS V14.01,2013-01-17 10:32:00,
2013-01-17 05:33:00,32.9,27.7,29.83,SW,217,7.0,11.0,81,0.00,,---,0.00,VWS V14.01,2013-01-17 10:33:00,
2013-01-17 05:34:00,32.9,27.7,29.83,SW,227,7.0,11.0,81,0.00,,---,0.00,VWS V14.01,2013-01-17 10:34:00,
2013-01-17 05:37:00,32.8,27.9,29.83,SW,236,3.0,11.0,82,0.00,,---,0.00,VWS V14.01,2013-01-17 10:37:00,
2013-01-17 05:38:00,32.8,27.6,29.83,SW,236,10.0,11.0,81,0.00,,---,0.00,VWS V14.01,2013-01-17 10:38:00,
2013-01-17 05:39:00,32.8,27.6,29.83,SSW,210,5.0,11.0,81,0.00,,---,0.00,VWS V14.01,2013-01-17 10:39:00,
2013-01-17 05:40:00,32.9,27.4,29.83,SW,235,9.0,11.0,80,0.00,,---,0.00,VWS V14.01,2013-01-17 10:40:00,
2013-01-17 05:42:00,32.9,27.7,29.83,WSW,256,0.0,11.0,81,0.00,,---,0.00,VWS V14.01,2013-01-17 10:42:00,
2013-01-17 05:43:00,32.9,27.7,29.83,SW,228,8.0,11.0,81,0.00,,---,0.00,VWS V14.01,2013-01-17 10:43:00,
2013-01-17 05:45:00,33.0,27.5,29.83,SW,229,4.0,11.0,80,0.00,,---,0.00,VWS V14.01,2013-01-17 10:45:00,
2013-01-17 05:48:00,33.2,27.4,29.83,NW,323,1.0,11.0,79,0.00,,---,0.00,VWS V14.01,2013-01-17 10:48:00,
2013-01-17 05:49:00,33.2,27.4,29.83,SW,231,6.0,11.0,79,0.00,,---,0.00,VWS V14.01,2013-01-17 10:49:00,
2013-01-17 05:50:00,33.1,27.3,29.83,West,260,1.0,11.0,79,0.00,,---,0.00,VWS V14.01,2013-01-17 10:50:00,
2013-01-17 05:54:00,33.2,27.4,29.83,SW,235,7.0,11.0,79,0.00,,---,0.00,VWS V14.01,2013-01-17 10:54:00,
2013-01-17 05:55:00,33.3,27.5,29.83,SW,224,4.0,11.0,79,0.00,,---,0.00,VWS V14.01,2013-01-17 10:55:00,
2013-01-17 05:56:00,33.3,27.5,29.83,NNE,18,1.0,11.0,79,0.00,,---,0.00,VWS V14.01,2013-01-17 10:56:00,
2013-01-17 06:00:00,33.3,27.5,29.84,WNW,283,3.0,11.0,79,0.00,,---,0.00,VWS V14.01,2013-01-17 11:00:00,
2013-01-17 06:01:00,33.3,27.5,29.84,WSW,248,2.0,2.0,79,0.00,,---,0.00,VWS V14.01,2013-01-17 11:01:00,
2013-01-17 06:04:00,33.3,27.5,29.84,SW,217,1.0,3.0,79,0.00,,---,0.00,VWS V14.01,2013-01-17 11:04:00,
2013-01-17 06:05:00,33.3,27.5,29.84,SW,235,4.0,5.0,79,0.00,,---,0.00,VWS V14.01,2013-01-17 11:05:00,
2013-01-17 06:06:00,33.3,27.5,29.84,SSW,198,3.0,5.0,79,0.00,,---,0.00,VWS V14.01,2013-01-17 11:06:00,
2013-01-17 06:07:00,33.3,27.5,29.84,WSW,249,5.0,6.0,79,0.00,,---,0.00,VWS V14.01,2013-01-17 11:07:00,
2013-01-17 06:09:00,33.4,27.3,29.84,SSW,210,1.0,8.0,78,0.00,,---,0.00,VWS V14.01,2013-01-17 11:09:00,
2013-01-17 06:10:00,33.5,27.4,29.84,SW,224,3.0,8.0,78,0.00,,---,0.00,VWS V14.01,2013-01-17 11:10:00,
2013-01-17 06:11:00,33.5,27.7,29.84,ESE,114,1.0,8.0,79,0.00,,---,0.00,VWS V14.01,2013-01-17 11:11:00,
2013-01-17 06:13:00,33.5,27.7,29.84,SSE,158,0.0,8.0,79,0.00,,---,0.00,VWS V14.01,2013-01-17 11:13:00,
2013-01-17 06:15:00,33.4,27.6,29.84,West,260,0.0,8.0,79,0.00,,---,0.00,VWS V14.01,2013-01-17 11:15:00,
2013-01-17 06:16:00,33.4,27.6,29.84,WSW,242,1.0,8.0,79,0.00,,---,0.00,VWS V14.01,2013-01-17 11:16:00,
2013-01-17 06:17:00,33.4,27.6,29.84,SSW,204,0.0,8.0,79,0.00,,---,0.00,VWS V14.01,2013-01-17 11:17:00,
2013-01-17 06:18:00,33.4,27.6,29.84,South,180,0.0,8.0,79,0.00,,---,0.00,VWS V14.01,2013-01-17 11:18:00,
2013-01-17 06:21:00,33.4,27.6,29.84,WSW,239,0.0,8.0,79,0.00,,---,0.00,VWS V14.01,2013-01-17 11:21:00,
2013-01-17 06:23:00,33.4,27.6,29.84,NE,41,0.0,8.0,79,0.00,,---,0.00,VWS V14.01,2013-01-17 11:23:00,
2013-01-17 06:26:00,33.5,27.4,29.84,SW,231,4.0,8.0,78,0.00,,---,0.00,VWS V14.01,2013-01-17 11:26:00,
2013-01-17 06:28:00,33.6,27.5,29.84,SW,217,5.0,8.0,78,0.00,,---,0.00,VWS V14.01,2013-01-17 11:28:00,
2013-01-17 06:32:00,33.6,27.2,29.84,WSW,246,0.0,10.0,77,0.00,,---,0.00,VWS V14.01,2013-01-17 11:32:00,
2013-01-17 06:33:00,33.7,27.3,29.85,WSW,253,2.0,10.0,77,0.00,,---,0.00,VWS V14.01,2013-01-17 11:33:00,
2013-01-17 06:34:00,33.7,27.3,29.85,WSW,256,2.0,10.0,77,0.00,,---,0.00,VWS V14.01,2013-01-17 11:34:00,
2013-01-17 06:37:00,33.6,27.5,29.85,SW,231,4.0,10.0,78,0.00,,---,0.00,VWS V14.01,2013-01-17 11:37:00,
2013-01-17 06:39:00,33.6,27.5,29.84,WSW,255,2.0,10.0,78,0.00,,---,0.00,VWS V14.01,2013-01-17 11:39:00,
2013-01-17 06:42:00,33.6,27.5,29.85,NNW,330,3.0,10.0,78,0.00,,---,0.00,VWS V14.01,2013-01-17 11:42:00,
2013-01-17 06:44:00,33.6,27.2,29.85,East,95,5.0,10.0,77,0.00,,---,0.00,VWS V14.01,2013-01-17 11:44:00,
2013-01-17 06:45:00,33.6,27.2,29.85,SSE,160,1.0,10.0,77,0.00,,---,0.00,VWS V14.01,2013-01-17 11:45:00,
2013-01-17 06:47:00,33.6,27.2,29.85,South,177,1.0,10.0,77,0.00,,---,0.00,VWS V14.01,2013-01-17 11:47:00,
2013-01-17 06:49:00,33.6,27.5,29.85,SW,227,3.0,10.0,78,0.00,,---,0.00,VWS V14.01,2013-01-17 11:49:00,
2013-01-17 06:50:00,33.6,27.5,29.85,SW,236,3.0,10.0,78,0.00,,---,0.00,VWS V14.01,2013-01-17 11:50:00,
2013-01-17 06:54:00,33.6,27.5,29.85,West,277,1.0,10.0,78,0.00,,---,0.00,VWS V14.01,2013-01-17 11:54:00,
2013-01-17 06:55:00,33.6,27.5,29.85,West,264,1.0,10.0,78,0.00,,---,0.00,VWS V14.01,2013-01-17 11:55:00,
2013-01-17 07:00:00,33.5,27.4,29.86,WSW,242,2.0,8.0,78,0.00,,---,0.00,VWS V14.01,2013-01-17 12:00:00,
2013-01-17 07:01:00,33.5,27.4,29.86,West,274,0.0,8.0,78,0.00,,---,0.00,VWS V14.01,2013-01-17 12:01:00,
2013-01-17 07:05:00,33.5,27.4,29.86,WSW,249,3.0,8.0,78,0.00,,---,0.00,VWS V14.01,2013-01-17 12:05:00,
2013-01-17 07:06:00,33.5,27.4,29.86,WSW,243,0.0,8.0,78,0.00,,---,0.00,VWS V14.01,2013-01-17 12:06:00,
2013-01-17 07:10:00,33.5,27.4,29.86,WSW,252,1.0,8.0,78,0.00,,---,0.00,VWS V14.01,2013-01-17 12:10:00,
2013-01-17 07:11:00,33.5,27.7,29.86,WSW,257,0.0,8.0,79,0.00,,---,0.00,VWS V14.01,2013-01-17 12:11:00,
2013-01-17 07:12:00,33.5,27.4,29.86,SW,218,1.0,8.0,78,0.00,,---,0.00,VWS V14.01,2013-01-17 12:12:00,
2013-01-17 07:15:00,33.7,27.6,29.86,West,269,1.0,8.0,78,0.00,,---,0.00,VWS V14.01,2013-01-17 12:15:00,
2013-01-17 07:16:00,33.7,27.6,29.86,West,261,0.0,8.0,78,0.00,,---,0.00,VWS V14.01,2013-01-17 12:16:00,
2013-01-17 07:17:00,33.7,27.6,29.86,SSW,207,1.0,8.0,78,0.00,,---,0.00,VWS V14.01,2013-01-17 12:17:00,
2013-01-17 07:21:00,33.8,27.7,29.86,SW,229,2.0,8.0,78,0.00,,---,0.00,VWS V14.01,2013-01-17 12:21:00,
2013-01-17 07:22:00,33.8,27.7,29.86,WSW,246,3.0,8.0,78,0.00,,---,0.00,VWS V14.01,2013-01-17 12:22:00,
2013-01-17 07:23:00,33.8,27.7,29.86,WSW,249,1.0,8.0,78,0.00,,---,0.00,VWS V14.01,2013-01-17 12:23:00,
2013-01-17 07:27:00,33.8,27.7,29.86,West,274,4.0,8.0,78,0.00,,---,0.00,VWS V14.01,2013-01-17 12:27:00,
2013-01-17 07:29:00,33.7,27.6,29.86,SSW,210,0.0,8.0,78,0.00,,---,0.00,VWS V14.01,2013-01-17 12:29:00,
2013-01-17 07:32:00,34.0,27.9,29.87,NNW,328,3.0,5.0,78,0.00,,---,0.00,VWS V14.01,2013-01-17 12:32:00,
2013-01-17 07:33:00,34.0,27.6,29.87,West,281,6.0,6.0,77,0.00,,---,0.00,VWS V14.01,2013-01-17 12:33:00,
2013-01-17 07:34:00,34.1,27.7,29.87,SW,229,2.0,7.0,77,0.00,,---,0.00,VWS V14.01,2013-01-17 12:34:00,
2013-01-17 07:38:00,34.3,27.9,29.87,WSW,249,1.0,7.0,77,0.00,,---,0.00,VWS V14.01,2013-01-17 12:38:00,
2013-01-17 07:39:00,34.3,27.9,29.87,East,97,1.0,7.0,77,0.00,,---,0.00,VWS V14.01,2013-01-17 12:39:00,
2013-01-17 07:43:00,34.6,28.1,29.87,West,264,5.0,10.0,77,0.00,,---,0.00,VWS V14.01,2013-01-17 12:43:00,
2013-01-17 07:44:00,34.7,28.2,29.87,SSW,207,1.0,10.0,77,0.00,,---,0.00,VWS V14.01,2013-01-17 12:44:00,
2013-01-17 07:49:00,34.8,28.0,29.88,West,264,0.0,10.0,76,0.00,,---,0.00,VWS V14.01,2013-01-17 12:49:00,
2013-01-17 07:51:00,35.0,28.2,29.88,SW,217,0.0,10.0,76,0.00,,---,0.00,VWS V14.01,2013-01-17 12:51:00,
2013-01-17 07:55:00,35.1,28.3,29.88,WSW,256,0.0,10.0,76,0.00,,---,0.00,VWS V14.01,2013-01-17 12:55:00,
2013-01-17 07:57:00,35.1,28.3,29.88,ESE,103,1.0,10.0,76,0.00,,---,0.00,VWS V14.01,2013-01-17 12:57:00,
2013-01-17 08:00:00,35.2,28.4,29.88,SW,220,2.0,10.0,76,0.00,,---,0.00,VWS V14.01,2013-01-17 13:00:00,
2013-01-17 08:02:00,35.2,28.1,29.89,WSW,250,0.0,6.0,75,0.00,,---,0.00,VWS V14.01,2013-01-17 13:02:00,
2013-01-17 08:03:00,35.2,28.1,29.89,NW,319,1.0,6.0,75,0.00,,---,0.00,VWS V14.01,2013-01-17 13:03:00,
2013-01-17 08:05:00,35.2,28.4,29.89,NW,309,11.0,11.0,76,0.00,,---,0.00,VWS V14.01,2013-01-17 13:05:00,
2013-01-17 08:07:00,35.3,28.5,29.89,WSW,257,2.0,11.0,76,0.00,,---,0.00,VWS V14.01,2013-01-17 13:07:00,
2013-01-17 08:08:00,35.3,28.2,29.89,WSW,242,1.0,11.0,75,0.00,,---,0.00,VWS V14.01,2013-01-17 13:08:00,
2013-01-17 08:09:00,35.3,28.2,29.89,West,259,1.0,11.0,75,0.00,,---,0.00,VWS V14.01,2013-01-17 13:09:00,
2013-01-17 08:10:00,35.3,28.2,29.89,West,276,5.0,11.0,75,0.00,,---,0.00,VWS V14.01,2013-01-17 13:10:00,
2013-01-17 08:13:00,35.3,28.2,29.89,WNW,298,0.0,11.0,75,0.00,,---,0.00,VWS V14.01,2013-01-17 13:13:00,
2013-01-17 08:14:00,35.2,28.1,29.89,NW,308,3.0,11.0,75,0.00,,---,0.00,VWS V14.01,2013-01-17 13:14:00,
2013-01-17 08:15:00,35.1,28.3,29.89,West,271,3.0,11.0,76,0.00,,---,0.00,VWS V14.01,2013-01-17 13:15:00,
2013-01-17 08:18:00,35.1,28.3,29.89,WSW,253,3.0,11.0,76,0.00,,---,0.00,VWS V14.01,2013-01-17 13:18:00,
2013-01-17 08:19:00,35.2,28.4,29.89,WNW,283,0.0,11.0,76,0.00,,---,0.00,VWS V14.01,2013-01-17 13:19:00,
2013-01-17 08:20:00,35.2,28.1,29.90,West,271,4.0,11.0,75,0.00,,---,0.00,VWS V14.01,2013-01-17 13:20:00,
2013-01-17 08:22:00,35.2,28.1,29.90,SW,233,0.0,11.0,75,0.00,,---,0.00,VWS V14.01,2013-01-17 13:22:00,
2013-01-17 08:23:00,35.2,28.4,29.90,NE,53,1.0,11.0,76,0.00,,---,0.00,VWS V14.01,2013-01-17 13:23:00,
2013-01-17 08:24:00,35.1,28.3,29.90,NW,304,3.0,11.0,76,0.00,,---,0.00,VWS V14.01,2013-01-17 13:24:00,
2013-01-17 08:25:00,35.1,28.3,29.90,North,352,1.0,11.0,76,0.00,,---,0.00,VWS V14.01,2013-01-17 13:25:00,
2013-01-17 08:27:00,34.9,28.1,29.90,WNW,285,3.0,11.0,76,0.00,,---,0.00,VWS V14.01,2013-01-17 13:27:00,
2013-01-17 08:29:00,35.0,28.2,29.90,SW,231,0.0,11.0,76,0.00,,---,0.00,VWS V14.01,2013-01-17 13:29:00,
2013-01-17 08:30:00,35.1,28.3,29.90,West,262,6.0,7.0,76,0.00,,---,0.00,VWS V14.01,2013-01-17 13:30:00,
2013-01-17 08:32:00,35.0,28.2,29.91,WNW,291,1.0,7.0,76,0.00,,---,0.00,VWS V14.01,2013-01-17 13:32:00,
2013-01-17 08:34:00,35.0,28.5,29.91,NW,304,5.0,7.0,77,0.00,,---,0.00,VWS V14.01,2013-01-17 13:34:00,
2013-01-17 08:35:00,35.0,28.5,29.91,West,260,2.0,9.0,77,0.00,,---,0.00,VWS V14.01,2013-01-17 13:35:00,
2013-01-17 08:37:00,34.9,28.1,29.91,WSW,255,1.0,9.0,76,0.00,,---,0.00,VWS V14.01,2013-01-17 13:37:00,
2013-01-17 08:38:00,34.9,28.1,29.90,West,276,2.0,9.0,76,0.00,,---,0.00,VWS V14.01,2013-01-17 13:38:00,
2013-01-17 08:39:00,34.9,28.1,29.90,WNW,295,2.0,9.0,76,0.00,,---,0.00,VWS V14.01,2013-01-17 13:39:00,
2013-01-17 08:41:00,34.9,28.4,29.90,SW,233,0.0,9.0,77,0.00,,---,0.00,VWS V14.01,2013-01-17 13:41:00,
2013-01-17 08:42:00,34.9,28.4,29.91,SW,233,0.0,9.0,77,0.00,,---,0.00,VWS V14.01,2013-01-17 13:42:00,
2013-01-17 08:44:00,34.9,28.4,29.91,WNW,283,2.0,9.0,77,0.00,,---,0.00,VWS V14.01,2013-01-17 13:44:00,
2013-01-17 08:45:00,34.8,28.3,29.91,WNW,293,2.0,9.0,77,0.00,,---,0.00,VWS V14.01,2013-01-17 13:45:00,
2013-01-17 08:47:00,34.7,28.2,29.91,SSW,212,1.0,9.0,77,0.00,,---,0.00,VWS V14.01,2013-01-17 13:47:00,
2013-01-17 08:48:00,34.7,28.2,29.91,West,259,1.0,9.0,77,0.00,,---,0.00,VWS V14.01,2013-01-17 13:48:00,
2013-01-17 08:49:00,34.7,28.2,29.91,ENE,62,3.0,9.0,77,0.00,,---,0.00,VWS V14.01,2013-01-17 13:49:00,
2013-01-17 08:51:00,34.9,28.4,29.91,SW,229,0.0,9.0,77,0.00,,---,0.00,VWS V14.01,2013-01-17 13:51:00,
2013-01-17 08:53:00,35.1,28.6,29.91,West,270,0.0,9.0,77,0.00,,---,0.00,VWS V14.01,2013-01-17 13:53:00,
2013-01-17 08:55:00,35.2,29.0,29.91,WNW,294,6.0,9.0,78,0.00,,---,0.00,VWS V14.01,2013-01-17 13:55:00,
2013-01-17 08:56:00,35.2,28.4,29.91,NW,311,5.0,9.0,76,0.00,,---,0.00,VWS V14.01,2013-01-17 13:56:00,
2013-01-17 08:58:00,35.0,28.5,29.91,WNW,285,1.0,9.0,77,0.00,,---,0.00,VWS V14.01,2013-01-17 13:58:00,
2013-01-17 08:59:00,35.0,28.5,29.91,SSE,156,1.0,9.0,77,0.00,,---,0.00,VWS V14.01,2013-01-17 13:59:00,
2013-01-17 09:00:00,35.0,28.9,29.92,WNW,284,1.0,3.0,78,0.00,,---,0.00,VWS V14.01,2013-01-17 14:00:00,
2013-01-17 09:02:00,35.0,28.9,29.91,NW,314,2.0,5.0,78,0.00,,---,0.00,VWS V14.01,2013-01-17 14:02:00,
2013-01-17 09:03:00,35.0,28.9,29.91,WSW,248,1.0,5.0,78,0.00,,---,0.00,VWS V14.01,2013-01-17 14:03:00,
2013-01-17 09:05:00,35.2,28.7,29.91,WSW,252,2.0,5.0,77,0.00,,---,0.00,VWS V14.01,2013-01-17 14:05:00,
2013-01-17 09:06:00,35.2,28.7,29.91,WNW,287,1.0,5.0,77,0.00,,---,0.00,VWS V14.01,2013-01-17 14:06:00,
2013-01-17 09:08:00,35.2,28.7,29.91,SW,229,3.0,5.0,77,0.00,,---,0.00,VWS V14.01,2013-01-17 14:08:00,
2013-01-17 09:09:00,35.2,28.7,29.91,SE,139,2.0,5.0,77,0.00,,---,0.00,VWS V14.01,2013-01-17 14:09:00,
2013-01-17 09:10:00,35.1,28.6,29.91,SW,236,2.0,5.0,77,0.00,,---,0.00,VWS V14.01,2013-01-17 14:10:00,
2013-01-17 09:12:00,35.0,28.9,29.91,West,264,2.0,5.0,78,0.00,,---,0.00,VWS V14.01,2013-01-17 14:12:00,
2013-01-17 09:14:00,35.1,28.9,29.91,WSW,257,1.0,6.0,78,0.00,,---,0.00,VWS V14.01,2013-01-17 14:14:00,
2013-01-17 09:16:00,35.1,28.9,29.91,WSW,244,3.0,6.0,78,0.00,,---,0.00,VWS V14.01,2013-01-17 14:16:00,
2013-01-17 09:18:00,35.1,28.9,29.91,WNW,286,2.0,6.0,78,0.00,,---,0.00,VWS V14.01,2013-01-17 14:18:00,
2013-01-17 09:19:00,35.3,29.1,29.92,West,276,5.0,6.0,78,0.00,,---,0.00,VWS V14.01,2013-01-17 14:19:00,
2013-01-17 09:20:00,35.3,29.1,29.91,West,280,4.0,6.0,78,0.00,,---,0.00,VWS V14.01,2013-01-17 14:20:00,
2013-01-17 09:21:00,35.3,29.1,29.91,South,184,1.0,6.0,78,0.00,,---,0.00,VWS V14.01,2013-01-17 14:21:00,
2013-01-17 09:24:00,35.3,29.1,29.91,West,279,1.0,6.0,78,0.00,,---,0.00,VWS V14.01,2013-01-17 14:24:00,
2013-01-17 09:25:00,35.4,28.9,29.91,WSW,250,2.0,6.0,77,0.00,,---,0.00,VWS V14.01,2013-01-17 14:25:00,
2013-01-17 09:27:00,35.6,29.1,29.91,SSE,152,0.0,6.0,77,0.00,,---,0.00,VWS V14.01,2013-01-17 14:27:00,
2013-01-17 09:30:00,35.7,28.9,29.92,West,279,1.0,7.0,76,0.00,,---,0.00,VWS V14.01,2013-01-17 14:30:00,
2013-01-17 09:31:00,35.8,29.3,29.92,WSW,257,1.0,2.0,77,0.00,,---,0.00,VWS V14.01,2013-01-17 14:31:00,
2013-01-17 09:32:00,35.9,29.4,29.92,WSW,248,2.0,3.0,77,0.00,,---,0.00,VWS V14.01,2013-01-17 14:32:00,
2013-01-17 09:35:00,35.8,29.0,29.92,West,276,1.0,8.0,76,0.00,,---,0.00,VWS V14.01,2013-01-17 14:35:00,
2013-01-17 09:36:00,35.8,29.0,29.92,West,278,8.0,8.0,76,0.00,,---,0.00,VWS V14.01,2013-01-17 14:36:00,
2013-01-17 09:38:00,35.8,29.0,29.92,West,262,2.0,8.0,76,0.00,,---,0.00,VWS V14.01,2013-01-17 14:38:00,
2013-01-17 09:40:00,35.9,29.1,29.92,WNW,298,4.0,8.0,76,0.00,,---,0.00,VWS V14.01,2013-01-17 14:40:00,
2013-01-17 09:41:00,36.0,29.2,29.92,WNW,285,3.0,8.0,76,0.00,,---,0.00,VWS V14.01,2013-01-17 14:41:00,
2013-01-17 09:44:00,36.1,29.3,29.92,WSW,258,6.0,8.0,76,0.00,,---,0.00,VWS V14.01,2013-01-17 14:44:00,
2013-01-17 09:45:00,36.1,29.0,29.92,WSW,257,2.0,8.0,75,0.00,,---,0.00,VWS V14.01,2013-01-17 14:45:00,
2013-01-17 09:46:00,36.1,29.0,29.92,SW,218,4.0,8.0,75,0.00,,---,0.00,VWS V14.01,2013-01-17 14:46:00,
2013-01-17 09:49:00,36.0,28.9,29.92,SW,219,4.0,8.0,75,0.00,,---,0.00,VWS V14.01,2013-01-17 14:49:00,
2013-01-17 09:50:00,36.1,29.3,29.92,WSW,244,3.0,8.0,76,0.00,,---,0.00,VWS V14.01,2013-01-17 14:50:00,
2013-01-17 09:52:00,36.1,29.0,29.92,WSW,255,5.0,8.0,75,0.00,,---,0.00,VWS V14.01,2013-01-17 14:52:00,
2013-01-17 09:55:00,36.6,29.4,29.92,WNW,295,1.0,10.0,75,0.00,,---,0.00,VWS V14.01,2013-01-17 14:55:00,
2013-01-17 09:56:00,36.6,29.4,29.92,SW,236,0.0,10.0,75,0.00,,---,0.00,VWS V14.01,2013-01-17 14:56:00,
2013-01-17 09:57:00,36.9,30.0,29.91,NNW,333,1.0,10.0,76,0.00,,---,0.00,VWS V14.01,2013-01-17 14:57:00,
2013-01-17 09:58:00,37.2,30.4,29.91,SW,226,3.0,10.0,76,0.00,,---,0.00,VWS V14.01,2013-01-17 14:58:00,
2013-01-17 10:01:00,37.5,29.3,29.92,WNW,293,8.0,10.0,72,0.00,,---,0.00,VWS V14.01,2013-01-17 15:01:00,
2013-01-17 10:02:00,37.5,29.6,29.92,SW,232,6.0,10.0,73,0.00,,---,0.00,VWS V14.01,2013-01-17 15:02:00,
2013-01-17 10:03:00,37.5,29.6,29.92,SW,232,6.0,10.0,73,0.00,,---,0.00,VWS V14.01,2013-01-17 15:03:00,
2013-01-17 10:07:00,37.5,29.3,29.92,SSW,212,3.0,10.0,72,0.00,,---,0.00,VWS V14.01,2013-01-17 15:07:00,
2013-01-17 10:08:00,37.5,29.3,29.91,West,271,1.0,10.0,72,0.00,,---,0.00,VWS V14.01,2013-01-17 15:08:00,
2013-01-17 10:09:00,37.5,29.3,29.91,SW,233,4.0,10.0,72,0.00,,---,0.00,VWS V14.01,2013-01-17 15:09:00,
2013-01-17 10:12:00,37.1,28.9,29.91,WSW,246,4.0,14.0,72,0.00,,---,0.00,VWS V14.01,2013-01-17 15:12:00,
2013-01-17 10:13:00,37.1,29.3,29.91,West,270,10.0,14.0,73,0.01,,---,0.01,VWS V14.01,2013-01-17 15:13:00,
2013-01-17 10:14:00,36.9,29.1,29.92,West,260,4.0,14.0,73,0.01,,---,0.01,VWS V14.01,2013-01-17 15:14:00,
2013-01-17 10:16:00,36.9,29.1,29.92,WSW,241,7.0,14.0,73,0.01,,---,0.01,VWS V14.01,2013-01-17 15:16:00,
2013-01-17 10:17:00,37.0,29.2,29.92,WSW,252,4.0,14.0,73,0.01,,---,0.01,VWS V14.01,2013-01-17 15:17:00,
2013-01-17 10:19:00,37.1,29.3,29.92,NNW,328,7.0,14.0,73,0.01,,---,0.01,VWS V14.01,2013-01-17 15:19:00,
2013-01-17 10:21:00,37.1,29.3,29.92,WSW,255,7.0,14.0,73,0.01,,---,0.01,VWS V14.01,2013-01-17 15:21:00,
2013-01-17 10:22:00,37.1,29.3,29.92,WNW,289,4.0,14.0,73,0.01,,---,0.01,VWS V14.01,2013-01-17 15:22:00,
2013-01-17 10:24:00,37.1,29.3,29.92,West,277,3.0,14.0,73,0.01,,---,0.01,VWS V14.01,2013-01-17 15:24:00,
2013-01-17 10:25:00,37.2,29.4,29.92,West,272,8.0,14.0,73,0.01,,---,0.01,VWS V14.01,2013-01-17 15:25:00,
2013-01-17 10:26:00,37.2,29.0,29.92,NNE,30,2.0,14.0,72,0.01,,---,0.01,VWS V14.01,2013-01-17 15:26:00,
2013-01-17 10:27:00,37.3,29.5,29.91,West,266,2.0,14.0,73,0.01,,---,0.01,VWS V14.01,2013-01-17 15:27:00,
2013-01-17 10:30:00,37.3,29.1,29.91,NNW,333,7.0,14.0,72,0.01,,---,0.01,VWS V14.01,2013-01-17 15:30:00,
2013-01-17 10:31:00,37.3,29.1,29.91,WSW,249,6.0,8.0,72,0.01,,---,0.01,VWS V14.01,2013-01-17 15:31:00,
2013-01-17 10:34:00,37.2,29.0,29.92,West,274,6.0,12.0,72,0.01,,---,0.01,VWS V14.01,2013-01-17 15:34:00,
2013-01-17 10:35:00,37.1,28.9,29.92,West,261,7.0,12.0,72,0.01,,---,0.01,VWS V14.01,2013-01-17 15:35:00,
2013-01-17 10:36:00,37.1,29.3,29.92,WSW,240,5.0,12.0,73,0.01,,---,0.01,VWS V14.01,2013-01-17 15:36:00,
2013-01-17 10:37:00,37.1,29.3,29.92,WSW,239,4.0,12.0,73,0.01,,---,0.01,VWS V14.01,2013-01-17 15:37:00,
2013-01-17 10:40:00,37.1,29.3,29.92,West,262,8.0,12.0,73,0.01,,---,0.01,VWS V14.01,2013-01-17 15:40:00,
2013-01-17 10:42:00,37.0,28.5,29.92,SW,229,12.0,16.0,71,0.01,,---,0.01,VWS V14.01,2013-01-17 15:42:00,
2013-01-17 10:45:00,37.0,29.2,29.92,WSW,245,7.0,16.0,73,0.01,,---,0.01,VWS V14.01,2013-01-17 15:45:00,
2013-01-17 10:47:00,37.0,28.8,29.92,WSW,239,6.0,16.0,72,0.02,,---,0.02,VWS V14.01,2013-01-17 15:47:00,
2013-01-17 10:48:00,37.0,29.2,29.92,WSW,255,6.0,16.0,73,0.02,,---,0.02,VWS V14.01,2013-01-17 15:48:00,
2013-01-17 10:51:00,37.1,29.3,29.92,SW,217,3.0,16.0,73,0.02,,---,0.02,VWS V14.01,2013-01-17 15:51:00,
2013-01-17 10:53:00,37.2,29.4,29.92,WSW,255,6.0,16.0,73,0.02,,---,0.02,VWS V14.01,2013-01-17 15:53:00,
2013-01-17 10:54:00,37.2,29.4,29.92,WNW,302,7.0,16.0,73,0.02,,---,0.02,VWS V14.01,2013-01-17 15:54:00,
2013-01-17 10:56:00,37.3,29.5,29.92,ESE,114,1.0,16.0,73,0.02,,---,0.02,VWS V14.01,2013-01-17 15:56:00,
2013-01-17 10:58:00,37.4,29.5,29.92,WSW,256,11.0,16.0,73,0.02,,---,0.02,VWS V14.01,2013-01-17 15:58:00,
2013-01-17 10:59:00,37.4,29.5,29.91,WSW,241,11.0,16.0,73,0.02,,---,0.02,VWS V14.01,2013-01-17 15:59:00,
2013-01-17 11:02:00,37.3,29.1,29.91,South,179,5.0,12.0,72,0.02,,---,0.02,VWS V14.01,2013-01-17 16:02:00,
2013-01-17 11:03:00,37.3,29.5,29.92,SW,232,7.0,12.0,73,0.02,,---,0.02,VWS V14.01,2013-01-17 16:03:00,
2013-01-17 11:04:00,37.3,29.5,29.92,WSW,240,4.0,12.0,73,0.02,,---,0.02,VWS V14.01,2013-01-17 16:04:00,
2013-01-17 11:05:00,37.3,29.5,29.92,WNW,285,10.0,13.0,73,0.02,,---,0.02,VWS V14.01,2013-01-17 16:05:00,
2013-01-17 11:07:00,37.3,28.8,29.92,SW,229,5.0,15.0,71,0.02,,---,0.02,VWS V14.01,2013-01-17 16:07:00,
2013-01-17 11:08:00,37.3,29.1,29.92,West,273,4.0,15.0,72,0.02,,---,0.02,VWS V14.01,2013-01-17 16:08:00,
2013-01-17 11:09:00,37.3,29.1,29.92,West,269,5.0,15.0,72,0.02,,---,0.02,VWS V14.01,2013-01-17 16:09:00,
2013-01-17 11:11:00,37.3,29.1,29.92,WNW,285,12.0,16.0,72,0.02,,---,0.02,VWS V14.01,2013-01-17 16:11:00,
2013-01-17 11:13:00,37.3,29.1,29.92,SW,222,9.0,16.0,72,0.02,,---,0.02,VWS V14.01,2013-01-17 16:13:00,
2013-01-17 11:14:00,37.3,29.1,29.92,NW,326,4.0,16.0,72,0.02,,---,0.02,VWS V14.01,2013-01-17 16:14:00,
2013-01-17 11:16:00,37.4,29.2,29.92,SW,225,5.0,16.0,72,0.02,,---,0.02,VWS V14.01,2013-01-17 16:16:00,
2013-01-17 11:19:00,37.5,29.3,29.92,WSW,252,7.0,16.0,72,0.02,,---,0.02,VWS V14.01,2013-01-17 16:19:00,
2013-01-17 11:20:00,37.4,29.2,29.92,WSW,252,10.0,16.0,72,0.02,,---,0.02,VWS V14.01,2013-01-17 16:20:00,
2013-01-17 11:22:00,37.4,28.9,29.92,WSW,252,6.0,16.0,71,0.02,,---,0.02,VWS V14.01,2013-01-17 16:22:00,
2013-01-17 11:24:00,37.4,28.9,29.92,SW,232,2.0,16.0,71,0.03,,---,0.03,VWS V14.01,2013-01-17 16:24:00,
2013-01-17 11:25:00,37.4,28.9,29.92,West,266,6.0,16.0,71,0.03,,---,0.03,VWS V14.01,2013-01-17 16:25:00,
2013-01-17 11:29:00,37.4,28.5,29.93,NW,307,2.0,16.0,70,0.03,,---,0.03,VWS V14.01,2013-01-17 16:29:00,
2013-01-17 11:30:00,37.4,28.9,29.93,WSW,257,7.0,7.0,71,0.02,,---,0.03,VWS V14.01,2013-01-17 16:30:00,
2013-01-17 11:31:00,37.4,28.5,29.93,SSW,210,5.0,11.0,70,0.02,,---,0.03,VWS V14.01,2013-01-17 16:31:00,
2013-01-17 11:35:00,37.5,28.6,29.93,WSW,257,9.0,15.0,70,0.02,,---,0.03,VWS V14.01,2013-01-17 16:35:00,
2013-01-17 11:37:00,37.6,28.4,29.93,SW,232,8.0,16.0,69,0.02,,---,0.03,VWS V14.01,2013-01-17 16:37:00,
2013-01-17 11:38:00,37.6,28.4,29.93,WSW,248,16.0,16.0,69,0.02,,---,0.03,VWS V14.01,2013-01-17 16:38:00,
2013-01-17 11:40:00,37.7,28.5,29.93,WSW,252,8.0,16.0,69,0.02,,---,0.03,VWS V14.01,2013-01-17 16:40:00,
2013-01-17 11:41:00,37.7,28.8,29.93,WSW,239,8.0,16.0,70,0.02,,---,0.03,VWS V14.01,2013-01-17 16:41:00,
2013-01-17 11:43:00,37.9,28.6,29.93,WSW,258,8.0,16.0,69,0.02,,---,0.03,VWS V14.01,2013-01-17 16:43:00,
2013-01-17 11:46:00,37.9,29.0,29.93,WNW,283,7.0,16.0,70,0.02,,---,0.03,VWS V14.01,2013-01-17 16:46:00,
2013-01-17 11:48:00,37.9,29.0,29.93,SW,224,8.0,16.0,70,0.02,,---,0.03,VWS V14.01,2013-01-17 16:48:00,
2013-01-17 11:49:00,37.8,28.9,29.93,WSW,240,4.0,16.0,70,0.02,,---,0.03,VWS V14.01,2013-01-17 16:49:00,
2013-01-17 11:52:00,37.7,28.8,29.93,West,264,8.0,16.0,70,0.02,,---,0.03,VWS V14.01,2013-01-17 16:52:00,
2013-01-17 11:53:00,37.7,28.8,29.93,North,359,6.0,16.0,70,0.02,,---,0.03,VWS V14.01,2013-01-17 16:53:00,
2013-01-17 11:54:00,37.6,28.7,29.93,NW,309,6.0,16.0,70,0.02,,---,0.03,VWS V14.01,2013-01-17 16:54:00,
2013-01-17 11:58:00,37.5,29.0,29.93,WSW,255,10.0,19.0,71,0.03,,---,0.04,VWS V14.01,2013-01-17 16:58:00,
2013-01-17 11:59:00,37.5,28.6,29.93,West,277,3.0,19.0,70,0.03,,---,0.04,VWS V14.01,2013-01-17 16:59:00,
2013-01-17 12:00:00,37.5,28.6,29.93,WNW,300,7.0,19.0,70,0.03,,---,0.04,VWS V14.01,2013-01-17 17:00:00,
2013-01-17 12:03:00,37.5,28.6,29.93,West,277,6.0,20.0,70,0.02,,---,0.04,VWS V14.01,2013-01-17 17:03:00,
2013-01-17 12:04:00,37.4,28.5,29.93,WSW,253,9.0,20.0,70,0.02,,---,0.04,VWS V14.01,2013-01-17 17:04:00,
2013-01-17 12:05:00,37.5,29.0,29.93,WSW,237,14.0,20.0,71,0.02,,---,0.04,VWS V14.01,2013-01-17 17:05:00,
2013-01-17 12:08:00,37.4,28.5,29.94,WNW,285,5.0,20.0,70,0.02,,---,0.04,VWS V14.01,2013-01-17 17:08:00,
2013-01-17 12:10:00,37.4,28.9,29.93,WNW,294,2.0,20.0,71,0.02,,---,0.04,VWS V14.01,2013-01-17 17:10:00,
2013-01-17 12:11:00,37.5,29.0,29.93,West,279,4.0,20.0,71,0.03,,---,0.05,VWS V14.01,2013-01-17 17:11:00,
2013-01-17 12:14:00,37.4,28.9,29.93,NW,313,3.0,20.0,71,0.03,,---,0.05,VWS V14.01,2013-01-17 17:14:00,
2013-01-17 12:15:00,37.4,29.2,29.93,WNW,298,5.0,20.0,72,0.03,,---,0.05,VWS V14.01,2013-01-17 17:15:00,
2013-01-17 12:18:00,37.3,29.1,29.94,WNW,288,3.0,20.0,72,0.03,,---,0.05,VWS V14.01,2013-01-17 17:18:00,
2013-01-17 12:20:00,37.1,29.3,29.94,WNW,295,6.0,20.0,73,0.03,,---,0.05,VWS V14.01,2013-01-17 17:20:00,
2013-01-17 12:21:00,37.1,29.9,29.94,NW,316,3.0,20.0,75,0.03,,---,0.05,VWS V14.01,2013-01-17 17:21:00,
2013-01-17 12:23:00,36.4,30.5,29.95,WNW,295,8.0,20.0,79,0.03,,---,0.05,VWS V14.01,2013-01-17 17:23:00,
2013-01-17 12:26:00,35.4,30.5,29.95,NNW,330,6.0,20.0,82,0.03,,---,0.05,VWS V14.01,2013-01-17 17:26:00,
2013-01-17 12:28:00,34.8,30.2,29.95,WNW,302,8.0,20.0,83,0.03,,---,0.05,VWS V14.01,2013-01-17 17:28:00,
2013-01-17 12:29:00,34.7,30.1,29.95,NW,307,9.0,20.0,83,0.03,,---,0.05,VWS V14.01,2013-01-17 17:29:00,
2013-01-17 12:31:00,34.4,29.8,29.95,WNW,283,2.0,5.0,83,0.03,,---,0.06,VWS V14.01,2013-01-17 17:31:00,
2013-01-17 12:32:00,34.4,29.8,29.95,West,276,4.0,5.0,83,0.03,,---,0.06,VWS V14.01,2013-01-17 17:32:00,
2013-01-17 12:34:00,34.3,29.4,29.95,West,259,12.0,15.0,82,0.03,,---,0.06,VWS V14.01,2013-01-17 17:34:00,
2013-01-17 12:37:00,34.2,29.3,29.95,NW,304,3.0,15.0,82,0.03,,---,0.06,VWS V14.01,2013-01-17 17:37:00,
2013-01-17 12:39:00,34.2,29.0,29.95,North,355,13.0,15.0,81,0.03,,---,0.06,VWS V14.01,2013-01-17 17:39:00,
2013-01-17 12:40:00,34.2,29.0,29.95,NNW,336,10.0,15.0,81,0.03,,---,0.06,VWS V14.01,2013-01-17 17:40:00,
2013-01-17 12:42:00,34.3,29.4,29.95,West,281,0.0,15.0,82,0.03,,---,0.06,VWS V14.01,2013-01-17 17:42:00,
2013-01-17 12:43:00,34.3,29.4,29.96,NW,309,4.0,15.0,82,0.03,,---,0.06,VWS V14.01,2013-01-17 17:43:00,
2013-01-17 12:45:00,34.3,29.1,29.96,NW,323,8.0,15.0,81,0.03,,---,0.06,VWS V14.01,2013-01-17 17:45:00,
2013-01-17 12:48:00,34.2,28.4,29.96,West,278,9.0,16.0,79,0.03,,---,0.06,VWS V14.01,2013-01-17 17:48:00,
2013-01-17 12:49:00,34.2,28.4,29.96,NW,309,5.0,16.0,79,0.03,,---,0.06,VWS V14.01,2013-01-17 17:49:00,
2013-01-17 12:50:00,34.2,28.4,29.96,WNW,302,6.0,16.0,79,0.03,,---,0.06,VWS V14.01,2013-01-17 17:50:00,
2013-01-17 12:52:00,34.2,28.4,29.96,NW,321,10.0,16.0,79,0.03,,---,0.06,VWS V14.01,2013-01-17 17:52:00,
2013-01-17 12:53:00,34.2,28.1,29.96,NW,315,8.0,16.0,78,0.03,,---,0.06,VWS V14.01,2013-01-17 17:53:00,
2013-01-17 12:55:00,34.2,27.8,29.96,NW,308,8.0,16.0,77,0.04,,---,0.07,VWS V14.01,2013-01-17 17:55:00,
2013-01-17 12:57:00,34.1,27.7,29.96,West,281,3.0,16.0,77,0.04,,---,0.07,VWS V14.01,2013-01-17 17:57:00,
2013-01-17 12:59:00,34.1,27.7,29.96,ENE,63,2.0,16.0,77,0.04,,---,0.07,VWS V14.01,2013-01-17 17:59:00,
2013-01-17 13:01:00,34.1,27.7,29.97,WNW,295,4.0,5.0,77,0.03,,---,0.07,VWS V14.01,2013-01-17 18:01:00,
2013-01-17 13:03:00,34.1,27.0,29.97,NNW,328,3.0,8.0,75,0.03,,---,0.07,VWS V14.01,2013-01-17 18:03:00,
2013-01-17 13:04:00,34.2,27.4,29.97,WNW,283,5.0,8.0,76,0.03,,---,0.07,VWS V14.01,2013-01-17 18:04:00,
2013-01-17 13:06:00,34.2,26.8,29.98,West,264,5.0,8.0,74,0.03,,---,0.07,VWS V14.01,2013-01-17 18:06:00,
2013-01-17 13:09:00,34.1,26.4,29.97,WNW,301,6.0,11.0,73,0.03,,---,0.07,VWS V14.01,2013-01-17 18:09:00,
2013-01-17 13:10:00,34.1,26.7,29.97,NW,311,8.0,11.0,74,0.03,,---,0.07,VWS V14.01,2013-01-17 18:10:00,
2013-01-17 13:11:00,34.1,26.0,29.97,WNW,297,6.0,14.0,72,0.03,,---,0.07,VWS V14.01,2013-01-17 18:11:00,
2013-01-17 13:15:00,33.8,25.1,29.98,WNW,300,2.0,14.0,70,0.03,,---,0.07,VWS V14.01,2013-01-17 18:15:00,
2013-01-17 13:17:00,33.7,25.3,29.99,WNW,288,8.0,14.0,71,0.03,,---,0.07,VWS V14.01,2013-01-17 18:17:00,
2013-01-17 13:20:00,33.6,24.5,29.99,West,259,5.0,14.0,69,0.03,,---,0.07,VWS V14.01,2013-01-17 18:20:00,
2013-01-17 13:21:00,33.5,24.4,29.99,NW,309,8.0,14.0,69,0.03,,---,0.07,VWS V14.01,2013-01-17 18:21:00,
2013-01-17 13:22:00,33.4,24.3,29.99,NNW,331,3.0,14.0,69,0.03,,---,0.07,VWS V14.01,2013-01-17 18:22:00,
2013-01-17 13:23:00,33.4,24.3,29.99,WNW,297,7.0,14.0,69,0.03,,---,0.07,VWS V14.01,2013-01-17 18:23:00,
2013-01-17 13:25:00,33.2,23.5,30.00,WNW,288,9.0,23.0,67,0.03,,---,0.07,VWS V14.01,2013-01-17 18:25:00,
2013-01-17 13:26:00,33.1,23.7,30.00,NNW,343,3.0,23.0,68,0.03,,---,0.07,VWS V14.01,2013-01-17 18:26:00,
2013-01-17 13:27:00,32.9,23.2,29.99,NW,323,10.0,23.0,67,0.03,,---,0.07,VWS V14.01,2013-01-17 18:27:00,
2013-01-17 13:28:00,32.8,23.4,29.99,NW,306,15.0,23.0,68,0.03,,---,0.07,VWS V14.01,2013-01-17 18:28:00,
2013-01-17 13:30:00,32.6,22.9,30.00,NW,308,5.0,9.0,67,0.01,,---,0.07,VWS V14.01,2013-01-17 18:30:00,
2013-01-17 13:31:00,32.6,23.2,30.00,WNW,289,15.0,15.0,68,0.01,,---,0.07,VWS V14.01,2013-01-17 18:31:00,
2013-01-17 13:34:00,32.5,23.1,30.00,WNW,295,5.0,15.0,68,0.01,,---,0.07,VWS V14.01,2013-01-17 18:34:00,
2013-01-17 13:35:00,32.4,23.0,30.00,NW,320,1.0,15.0,68,0.02,,---,0.08,VWS V14.01,2013-01-17 18:35:00,
2013-01-17 13:36:00,32.4,23.0,29.99,NNW,333,8.0,15.0,68,0.02,,---,0.08,VWS V14.01,2013-01-17 18:36:00,
2013-01-17 13:37:00,32.4,23.0,30.00,WNW,298,5.0,15.0,68,0.02,,---,0.08,VWS V14.01,2013-01-17 18:37:00,
2013-01-17 13:39:00,32.3,22.9,30.00,West,274,4.0,15.0,68,0.02,,---,0.08,VWS V14.01,2013-01-17 18:39:00,
2013-01-17 13:40:00,32.4,23.4,30.00,ENE,60,1.0,15.0,69,0.02,,---,0.08,VWS V14.01,2013-01-17 18:40:00,
2013-01-17 13:41:00,32.4,23.4,30.00,NW,323,6.0,15.0,69,0.02,,---,0.08,VWS V14.01,2013-01-17 18:41:00,
2013-01-17 13:42:00,32.4,23.4,30.00,SSW,201,1.0,15.0,69,0.02,,---,0.08,VWS V14.01,2013-01-17 18:42:00,
2013-01-17 13:45:00,32.5,23.1,30.00,NW,305,6.0,15.0,68,0.02,,---,0.08,VWS V14.01,2013-01-17 18:45:00,
2013-01-17 13:47:00,32.5,23.1,30.00,West,276,5.0,15.0,68,0.02,,---,0.08,VWS V14.01,2013-01-17 18:47:00,
2013-01-17 13:48:00,32.5,23.1,30.00,NW,326,3.0,15.0,68,0.02,,---,0.08,VWS V14.01,2013-01-17 18:48:00,
2013-01-17 13:50:00,32.5,23.1,30.00,WNW,293,7.0,15.0,68,0.02,,---,0.08,VWS V14.01,2013-01-17 18:50:00,
2013-01-17 13:53:00,32.6,22.9,30.00,WNW,288,3.0,15.0,67,0.02,,---,0.08,VWS V14.01,2013-01-17 18:53:00,
2013-01-17 13:54:00,32.6,23.2,30.00,NNW,332,1.0,15.0,68,0.02,,---,0.08,VWS V14.01,2013-01-17 18:54:00,
2013-01-17 13:55:00,32.7,23.3,30.00,NW,314,1.0,15.0,68,0.02,,---,0.08,VWS V14.01,2013-01-17 18:55:00,
2013-01-17 13:57:00,32.8,23.4,30.00,NW,308,3.0,15.0,68,0.02,,---,0.08,VWS V14.01,2013-01-17 18:57:00,
2013-01-17 13:59:00,32.9,23.5,30.00,WNW,285,2.0,15.0,68,0.02,,---,0.08,VWS V14.01,2013-01-17 18:59:00,
2013-01-17 14:01:00,32.9,23.2,30.00,WNW,283,7.0,9.0,67,0.01,,---,0.08,VWS V14.01,2013-01-17 19:01:00,
2013-01-17 14:02:00,32.9,23.2,30.00,South,189,3.0,9.0,67,0.01,,---,0.08,VWS V14.01,2013-01-17 19:02:00,
2013-01-17 14:04:00,32.8,23.1,30.00,South,188,8.0,9.0,67,0.01,,---,0.08,VWS V14.01,2013-01-17 19:04:00,
2013-01-17 14:05:00,32.8,22.7,30.00,South,188,2.0,9.0,66,0.01,,---,0.08,VWS V14.01,2013-01-17 19:05:00,
2013-01-17 14:07:00,32.7,22.6,30.00,South,188,0.0,9.0,66,0.01,,---,0.08,VWS V14.01,2013-01-17 19:07:00,
2013-01-17 14:11:00,32.7,22.6,30.01,South,188,5.0,9.0,66,0.01,,---,0.08,VWS V14.01,2013-01-17 19:11:00,
2013-01-17 14:13:00,32.7,23.0,30.01,South,188,2.0,9.0,67,0.01,,---,0.08,VWS V14.01,2013-01-17 19:13:00,
2013-01-17 14:14:00,32.7,23.0,30.01,South,188,5.0,9.0,67,0.01,,---,0.08,VWS V14.01,2013-01-17 19:14:00,
2013-01-17 14:16:00,32.6,22.1,30.01,South,188,4.0,19.0,65,0.01,,---,0.08,VWS V14.01,2013-01-17 19:16:00,
2013-01-17 14:17:00,32.5,22.1,30.01,South,189,4.0,19.0,65,0.01,,---,0.08,VWS V14.01,2013-01-17 19:17:00,
2013-01-17 14:19:00,32.5,22.1,30.01,South,188,5.0,19.0,65,0.01,,---,0.08,VWS V14.01,2013-01-17 19:19:00,
2013-01-17 14:21:00,32.4,22.0,30.01,South,188,6.0,19.0,65,0.01,,---,0.08,VWS V14.01,2013-01-17 19:21:00,
2013-01-17 14:22:00,32.4,22.0,30.01,South,188,6.0,19.0,65,0.01,,---,0.08,VWS V14.01,2013-01-17 19:22:00,
2013-01-17 14:24:00,32.2,21.8,30.01,South,188,2.0,19.0,65,0.01,,---,0.08,VWS V14.01,2013-01-17 19:24:00,
2013-01-17 14:25:00,32.1,21.7,30.01,South,188,7.0,19.0,65,0.01,,---,0.08,VWS V14.01,2013-01-17 19:25:00,
2013-01-17 14:27:00,32.1,22.0,30.01,NNW,330,2.0,19.0,66,0.01,,---,0.08,VWS V14.01,2013-01-17 19:27:00,
2013-01-17 14:30:00,32.0,21.6,30.01,West,263,1.0,19.0,65,0.01,,---,0.08,VWS V14.01,2013-01-17 19:30:00,
2013-01-17 14:32:00,32.0,21.6,30.02,South,190,3.0,8.0,65,0.01,,---,0.08,VWS V14.01,2013-01-17 19:32:00,
2013-01-17 14:35:00,31.9,21.9,30.02,NNW,335,5.0,12.0,66,0.01,,---,0.08,VWS V14.01,2013-01-17 19:35:00,
2013-01-17 14:38:00,31.8,21.4,30.02,WSW,257,4.0,12.0,65,0.01,,---,0.08,VWS V14.01,2013-01-17 19:38:00,
2013-01-17 14:40:00,31.7,22.0,30.02,South,188,3.0,12.0,67,0.01,,---,0.08,VWS V14.01,2013-01-17 19:40:00,
2013-01-17 14:43:00,31.6,20.8,30.03,WNW,288,4.0,13.0,64,0.01,,---,0.08,VWS V14.01,2013-01-17 19:43:00,
2013-01-17 14:45:00,31.4,21.0,30.03,West,260,6.0,13.0,65,0.01,,---,0.08,VWS V14.01,2013-01-17 19:45:00,
2013-01-17 14:46:00,31.3,20.5,30.03,SW,214,1.0,13.0,64,0.01,,---,0.08,VWS V14.01,2013-01-17 19:46:00,
2013-01-17 14:48:00,31.2,20.5,30.03,North,3,2.0,13.0,64,0.01,,---,0.08,VWS V14.01,2013-01-17 19:48:00,
2013-01-17 14:49:00,31.2,20.8,30.03,NNW,344,4.0,13.0,65,0.01,,---,0.08,VWS V14.01,2013-01-17 19:49:00,
2013-01-17 14:52:00,31.0,19.9,30.03,North,350,4.0,13.0,63,0.01,,---,0.08,VWS V14.01,2013-01-17 19:52:00,
2013-01-17 14:54:00,30.8,19.3,30.03,WNW,290,6.0,13.0,62,0.01,,---,0.08,VWS V14.01,2013-01-17 19:54:00,
2013-01-17 14:55:00,30.8,19.7,30.03,West,276,4.0,13.0,63,0.01,,---,0.08,VWS V14.01,2013-01-17 19:55:00,
2013-01-17 14:57:00,30.7,19.6,30.03,West,273,8.0,13.0,63,0.01,,---,0.08,VWS V14.01,2013-01-17 19:57:00,
2013-01-17 14:58:00,30.6,19.5,30.03,West,280,5.0,13.0,63,0.01,,---,0.08,VWS V14.01,2013-01-17 19:58:00,
2013-01-17 14:59:00,30.5,19.4,30.03,West,263,9.0,13.0,63,0.01,,---,0.08,VWS V14.01,2013-01-17 19:59:00,
2013-01-17 15:00:00,30.5,19.4,30.03,SW,236,2.0,13.0,63,0.01,,---,0.08,VWS V14.01,2013-01-17 20:00:00,
2013-01-17 15:02:00,30.4,19.7,30.03,WNW,302,4.0,11.0,64,0.00,,---,0.08,VWS V14.01,2013-01-17 20:02:00,
2013-01-17 15:05:00,30.3,19.2,30.03,NW,313,4.0,11.0,63,0.00,,---,0.08,VWS V14.01,2013-01-17 20:05:00,
2013-01-17 15:07:00,30.2,19.1,30.03,WNW,297,5.0,12.0,63,0.00,,---,0.08,VWS V14.01,2013-01-17 20:07:00,
2013-01-17 15:10:00,30.0,18.6,30.03,NW,311,6.0,14.0,62,0.00,,---,0.08,VWS V14.01,2013-01-17 20:10:00,
2013-01-17 15:12:00,29.9,18.5,30.03,West,274,8.0,14.0,62,0.00,,---,0.08,VWS V14.01,2013-01-17 20:12:00,
2013-01-17 15:15:00,29.7,18.3,30.03,NE,45,1.0,14.0,62,0.00,,---,0.08,VWS V14.01,2013-01-17 20:15:00,
2013-01-17 15:16:00,29.7,18.7,30.04,West,281,11.0,14.0,63,0.00,,---,0.08,VWS V14.01,2013-01-17 20:16:00,
2013-01-17 15:17:00,29.7,18.7,30.04,NW,318,3.0,14.0,63,0.00,,---,0.08,VWS V14.01,2013-01-17 20:17:00,
2013-01-17 15:18:00,29.7,18.3,30.04,NNW,333,3.0,14.0,62,0.00,,---,0.08,VWS V14.01,2013-01-17 20:18:00,
2013-01-17 15:21:00,29.7,18.7,30.05,NNW,344,6.0,14.0,63,0.00,,---,0.08,VWS V14.01,2013-01-17 20:21:00,
2013-01-17 15:22:00,29.7,18.7,30.05,WNW,283,10.0,14.0,63,0.00,,---,0.08,VWS V14.01,2013-01-17 20:22:00,
2013-01-17 15:23:00,29.7,18.3,30.05,NW,308,4.0,14.0,62,0.00,,---,0.08,VWS V14.01,2013-01-17 20:23:00,
2013-01-17 15:26:00,29.7,18.7,30.04,WNW,285,4.0,14.0,63,0.00,,---,0.08,VWS V14.01,2013-01-17 20:26:00,
2013-01-17 15:27:00,29.6,18.6,30.04,NW,314,4.0,14.0,63,0.00,,---,0.08,VWS V14.01,2013-01-17 20:27:00,
2013-01-17 15:28:00,29.6,18.6,30.05,WNW,291,11.0,14.0,63,0.00,,---,0.08,VWS V14.01,2013-01-17 20:28:00,
2013-01-17 15:32:00,29.4,18.0,30.05,West,259,3.0,9.0,62,0.00,,---,0.08,VWS V14.01,2013-01-17 20:32:00,
2013-01-17 15:33:00,29.4,18.4,30.05,WNW,288,7.0,9.0,63,0.00,,---,0.08,VWS V14.01,2013-01-17 20:33:00,
2013-01-17 15:37:00,29.3,18.3,30.05,West,264,2.0,13.0,63,0.00,,---,0.08,VWS V14.01,2013-01-17 20:37:00,
2013-01-17 15:38:00,29.2,17.8,30.05,NW,308,5.0,13.0,62,0.00,,---,0.08,VWS V14.01,2013-01-17 20:38:00,
2013-01-17 15:39:00,29.2,17.8,30.05,NW,304,6.0,13.0,62,0.00,,---,0.08,VWS V14.01,2013-01-17 20:39:00,
2013-01-17 15:43:00,29.0,17.2,30.06,NNW,333,3.0,13.0,61,0.00,,---,0.08,VWS V14.01,2013-01-17 20:43:00,
2013-01-17 15:44:00,29.0,17.6,30.06,WSW,246,10.0,13.0,62,0.00,,---,0.08,VWS V14.01,2013-01-17 20:44:00,
2013-01-17 15:48:00,28.9,17.5,30.06,West,274,6.0,13.0,62,0.00,,---,0.08,VWS V14.01,2013-01-17 20:48:00,
2013-01-17 15:49:00,28.9,17.5,30.06,WNW,287,4.0,13.0,62,0.00,,---,0.08,VWS V14.01,2013-01-17 20:49:00,
2013-01-17 15:50:00,28.8,17.1,30.06,West,278,3.0,13.0,61,0.00,,---,0.08,VWS V14.01,2013-01-17 20:50:00,
2013-01-17 15:54:00,28.7,17.0,30.06,West,281,4.0,13.0,61,0.00,,---,0.08,VWS V14.01,2013-01-17 20:54:00,
2013-01-17 15:56:00,28.7,17.0,30.06,NNW,343,3.0,13.0,61,0.00,,---,0.08,VWS V14.01,2013-01-17 20:56:00,
2013-01-17 15:59:00,28.6,16.9,30.05,SW,236,4.0,13.0,61,0.00,,---,0.08,VWS V14.01,2013-01-17 20:59:00,
2013-01-17 16:01:00,28.6,16.9,30.06,North,360,3.0,6.0,61,0.00,,---,0.08,VWS V14.01,2013-01-17 21:01:00,
2013-01-17 16:04:00,28.5,17.1,30.06,SW,231,2.0,6.0,62,0.00,,---,0.08,VWS V14.01,2013-01-17 21:04:00,
2013-01-17 16:05:00,28.5,17.1,30.06,NNW,343,5.0,6.0,62,0.00,,---,0.08,VWS V14.01,2013-01-17 21:05:00,
2013-01-17 16:06:00,28.5,17.1,30.05,NW,323,2.0,6.0,62,0.00,,---,0.08,VWS V14.01,2013-01-17 21:06:00,
2013-01-17 16:07:00,28.4,17.1,30.06,WNW,302,5.0,13.0,62,0.00,,---,0.08,VWS V14.01,2013-01-17 21:07:00,
2013-01-17 16:10:00,28.3,16.6,30.06,WNW,298,8.0,15.0,61,0.00,,---,0.08,VWS V14.01,2013-01-17 21:10:00,
2013-01-17 16:12:00,28.3,16.2,30.06,West,262,1.0,15.0,60,0.00,,---,0.08,VWS V14.01,2013-01-17 21:12:00,
2013-01-17 16:13:00,28.2,16.1,30.06,SSE,158,1.0,15.0,60,0.00,,---,0.08,VWS V14.01,2013-01-17 21:13:00,
2013-01-17 16:15:00,28.2,16.1,30.06,WNW,302,5.0,15.0,60,0.00,,---,0.08,VWS V14.01,2013-01-17 21:15:00,
2013-01-17 16:17:00,28.1,16.0,30.06,WNW,284,4.0,15.0,60,0.00,,---,0.08,VWS V14.01,2013-01-17 21:17:00,
2013-01-17 16:18:00,28.1,16.4,30.06,WNW,303,2.0,15.0,61,0.00,,---,0.08,VWS V14.01,2013-01-17 21:18:00,
2013-01-17 16:20:00,28.1,16.0,30.06,NW,309,7.0,15.0,60,0.00,,---,0.08,VWS V14.01,2013-01-17 21:20:00,
2013-01-17 16:22:00,28.0,15.9,30.06,NW,308,4.0,15.0,60,0.00,,---,0.08,VWS V14.01,2013-01-17 21:22:00,
2013-01-17 16:24:00,28.0,15.9,30.06,NW,307,3.0,15.0,60,0.00,,---,0.08,VWS V14.01,2013-01-17 21:24:00,
2013-01-17 16:25:00,27.9,16.2,30.06,NW,319,2.0,15.0,61,0.00,,---,0.08,VWS V14.01,2013-01-17 21:25:00,
2013-01-17 16:29:00,27.8,16.1,30.07,NNW,330,1.0,15.0,61,0.00,,---,0.08,VWS V14.01,2013-01-17 21:29:00,
2013-01-17 16:30:00,27.8,16.1,30.07,NNW,328,5.0,15.0,61,0.00,,---,0.08,VWS V14.01,2013-01-17 21:30:00,
2013-01-17 16:31:00,27.7,16.0,30.07,WNW,295,3.0,9.0,61,0.00,,---,0.08,VWS V14.01,2013-01-17 21:31:00,
2013-01-17 16:35:00,27.5,15.8,30.07,NW,325,2.0,9.0,61,0.00,,---,0.08,VWS V14.01,2013-01-17 21:35:00,
2013-01-17 16:36:00,27.5,15.8,30.07,NW,308,3.0,9.0,61,0.00,,---,0.08,VWS V14.01,2013-01-17 21:36:00,
2013-01-17 16:37:00,27.4,15.7,30.07,WNW,301,4.0,11.0,61,0.00,,---,0.08,VWS V14.01,2013-01-17 21:37:00,
2013-01-17 16:41:00,27.1,15.4,30.07,West,259,2.0,11.0,61,0.00,,---,0.08,VWS V14.01,2013-01-17 21:41:00,
2013-01-17 16:42:00,27.1,15.4,30.07,NE,43,3.0,11.0,61,0.00,,---,0.08,VWS V14.01,2013-01-17 21:42:00,
2013-01-17 16:43:00,27.0,15.4,30.07,NNW,330,3.0,11.0,61,0.00,,---,0.08,VWS V14.01,2013-01-17 21:43:00,
2013-01-17 16:46:00,26.8,14.8,30.08,NW,312,4.0,11.0,60,0.00,,---,0.08,VWS V14.01,2013-01-17 21:46:00,
2013-01-17 16:48:00,26.8,14.8,30.08,SW,233,1.0,11.0,60,0.00,,---,0.08,VWS V14.01,2013-01-17 21:48:00,
2013-01-17 16:50:00,26.6,15.0,30.08,North,350,1.0,11.0,61,0.00,,---,0.08,VWS V14.01,2013-01-17 21:50:00,
2013-01-17 16:53:00,26.5,14.1,30.08,North,349,4.0,11.0,59,0.00,,---,0.08,VWS V14.01,2013-01-17 21:53:00,
2013-01-17 16:55:00,26.3,13.9,30.08,NNW,328,3.0,11.0,59,0.00,,---,0.08,VWS V14.01,2013-01-17 21:55:00,
2013-01-17 16:58:00,26.2,13.8,30.08,North,11,3.0,11.0,59,0.00,,---,0.08,VWS V14.01,2013-01-17 21:58:00,
2013-01-17 16:59:00,26.2,13.8,30.08,West,280,3.0,11.0,59,0.00,,---,0.08,VWS V14.01,2013-01-17 21:59:00,
2013-01-17 17:01:00,26.1,13.8,30.08,NW,316,4.0,4.0,59,0.00,,---,0.08,VWS V14.01,2013-01-17 22:01:00,
2013-01-17 17:03:00,26.0,13.6,30.08,WNW,289,6.0,7.0,59,0.00,,---,0.08,VWS V14.01,2013-01-17 22:03:00,
2013-01-17 17:04:00,26.0,13.6,30.08,NW,320,7.0,8.0,59,0.00,,---,0.08,VWS V14.01,2013-01-17 22:04:00,
2013-01-17 17:05:00,25.9,13.6,30.08,NW,311,4.0,8.0,59,0.00,,---,0.08,VWS V14.01,2013-01-17 22:05:00,
2013-01-17 17:06:00,25.8,13.5,30.08,NW,319,3.0,8.0,59,0.00,,---,0.08,VWS V14.01,2013-01-17 22:06:00,
2013-01-17 17:09:00,25.7,13.4,30.09,West,274,1.0,8.0,59,0.00,,---,0.08,VWS V14.01,2013-01-17 22:09:00,
2013-01-17 17:10:00,25.7,13.4,30.08,NW,323,4.0,8.0,59,0.00,,---,0.08,VWS V14.01,2013-01-17 22:10:00,
2013-01-17 17:11:00,25.6,12.9,30.09,WNW,302,2.0,8.0,58,0.00,,---,0.08,VWS V14.01,2013-01-17 22:11:00,
2013-01-17 17:14:00,25.5,13.2,30.09,NNW,348,4.0,8.0,59,0.00,,---,0.08,VWS V14.01,2013-01-17 22:14:00,
2013-01-17 17:15:00,25.5,12.8,30.09,NW,314,4.0,8.0,58,0.00,,---,0.08,VWS V14.01,2013-01-17 22:15:00,
2013-01-17 17:16:00,25.4,12.7,30.09,NW,320,3.0,8.0,58,0.00,,---,0.08,VWS V14.01,2013-01-17 22:16:00,
2013-01-17 17:17:00,25.4,12.7,30.09,WNW,302,1.0,8.0,58,0.00,,---,0.08,VWS V14.01,2013-01-17 22:17:00,
2013-01-17 17:20:00,25.3,12.6,30.09,WNW,290,5.0,8.0,58,0.00,,---,0.08,VWS V14.01,2013-01-17 22:20:00,
2013-01-17 17:21:00,25.3,12.6,30.09,NW,320,3.0,8.0,58,0.00,,---,0.08,VWS V14.01,2013-01-17 22:21:00,
2013-01-17 17:22:00,25.3,12.2,30.09,NW,315,3.0,8.0,57,0.00,,---,0.08,VWS V14.01,2013-01-17 22:22:00,
2013-01-17 17:25:00,25.1,12.8,30.09,WNW,283,6.0,8.0,59,0.00,,---,0.08,VWS V14.01,2013-01-17 22:25:00,
2013-01-17 17:27:00,25.1,12.4,30.09,WNW,298,2.0,8.0,58,0.00,,---,0.08,VWS V14.01,2013-01-17 22:27:00,
2013-01-17 17:28:00,25.1,12.4,30.09,NW,307,3.0,8.0,58,0.00,,---,0.08,VWS V14.01,2013-01-17 22:28:00,
2013-01-17 17:30:00,25.0,12.7,30.10,WSW,257,1.0,1.0,59,0.00,,---,0.08,VWS V14.01,2013-01-17 22:30:00,
2013-01-17 17:32:00,25.0,13.1,30.10,WNW,293,3.0,5.0,60,0.00,,---,0.08,VWS V14.01,2013-01-17 22:32:00,
2013-01-17 17:34:00,24.9,12.6,30.10,WNW,294,4.0,5.0,59,0.00,,---,0.08,VWS V14.01,2013-01-17 22:34:00,
2013-01-17 17:36:00,24.9,12.6,30.10,West,276,1.0,7.0,59,0.00,,---,0.08,VWS V14.01,2013-01-17 22:36:00,
2013-01-17 17:37:00,24.8,12.5,30.10,West,281,5.0,7.0,59,0.00,,---,0.08,VWS V14.01,2013-01-17 22:37:00,
2013-01-17 17:39:00,24.8,12.1,30.10,West,263,1.0,7.0,58,0.00,,---,0.08,VWS V14.01,2013-01-17 22:39:00,
2013-01-17 17:40:00,24.8,12.5,30.10,WSW,255,1.0,7.0,59,0.00,,---,0.08,VWS V14.01,2013-01-17 22:40:00,
2013-01-17 17:41:00,24.8,12.5,30.10,North,352,4.0,7.0,59,0.00,,---,0.08,VWS V14.01,2013-01-17 22:41:00,
2013-01-17 17:43:00,24.7,12.0,30.10,NNW,336,5.0,8.0,58,0.00,,---,0.08,VWS V14.01,2013-01-17 22:43:00,
2013-01-17 17:44:00,24.7,12.0,30.10,West,259,5.0,8.0,58,0.00,,---,0.08,VWS V14.01,2013-01-17 22:44:00,
2013-01-17 17:46:00,24.6,12.3,30.10,West,263,2.0,8.0,59,0.00,,---,0.08,VWS V14.01,2013-01-17 22:46:00,
2013-01-17 17:47:00,24.6,12.3,30.10,NNW,328,4.0,8.0,59,0.00,,---,0.08,VWS V14.01,2013-01-17 22:47:00,
2013-01-17 17:48:00,24.6,12.3,30.10,NNW,332,1.0,8.0,59,0.00,,---,0.08,VWS V14.01,2013-01-17 22:48:00,
2013-01-17 17:49:00,24.5,12.2,30.10,WNW,284,2.0,8.0,59,0.00,,---,0.08,VWS V14.01,2013-01-17 22:49:00,
2013-01-17 17:51:00,24.5,11.9,30.10,WNW,283,2.0,8.0,58,0.00,,---,0.08,VWS V14.01,2013-01-17 22:51:00,
2013-01-17 17:52:00,24.4,11.8,30.10,NW,319,2.0,8.0,58,0.00,,---,0.08,VWS V14.01,2013-01-17 22:52:00,
2013-01-17 17:53:00,24.4,11.8,30.10,NW,311,2.0,8.0,58,0.00,,---,0.08,VWS V14.01,2013-01-17 22:53:00,
2013-01-17 17:55:00,24.4,11.8,30.10,WSW,252,3.0,8.0,58,0.00,,---,0.08,VWS V14.01,2013-01-17 22:55:00,
2013-01-17 17:57:00,24.3,11.3,30.10,WNW,282,3.0,8.0,57,0.00,,---,0.08,VWS V14.01,2013-01-17 22:57:00,
2013-01-17 17:58:00,24.3,11.3,30.10,West,270,4.0,8.0,57,0.00,,---,0.08,VWS V14.01,2013-01-17 22:58:00,
2013-01-17 18:00:00,24.3,11.3,30.10,West,277,3.0,8.0,57,0.00,,---,0.08,VWS V14.01,2013-01-17 23:00:00,
2013-01-17 18:02:00,24.2,11.2,30.10,NW,315,3.0,6.0,57,0.00,,---,0.08,VWS V14.01,2013-01-17 23:02:00,
2013-01-17 18:03:00,24.2,11.2,30.10,WSW,240,3.0,6.0,57,0.00,,---,0.08,VWS V14.01,2013-01-17 23:03:00,
2013-01-17 18:04:00,24.2,11.2,30.10,NW,318,3.0,6.0,57,0.00,,---,0.08,VWS V14.01,2013-01-17 23:04:00,
2013-01-17 18:05:00,24.2,11.6,30.10,NW,308,2.0,6.0,58,0.00,,---,0.08,VWS V14.01,2013-01-17 23:05:00,
2013-01-17 18:08:00,24.1,11.1,30.11,NNW,330,2.0,8.0,57,0.00,,---,0.08,VWS V14.01,2013-01-17 23:08:00,
2013-01-17 18:09:00,24.0,11.0,30.11,WNW,301,8.0,8.0,57,0.00,,---,0.08,VWS V14.01,2013-01-17 23:09:00,
2013-01-17 18:10:00,24.0,11.0,30.10,NW,311,4.0,8.0,57,0.00,,---,0.08,VWS V14.01,2013-01-17 23:10:00,
2013-01-17 18:13:00,23.9,11.3,30.10,WNW,288,3.0,8.0,58,0.00,,---,0.08,VWS V14.01,2013-01-17 23:13:00,
2013-01-17 18:14:00,23.9,11.3,30.10,West,260,3.0,8.0,58,0.00,,---,0.08,VWS V14.01,2013-01-17 23:14:00,
2013-01-17 18:17:00,23.8,11.2,30.10,North,355,7.0,8.0,58,0.00,,---,0.08,VWS V14.01,2013-01-17 23:17:00,
2013-01-17 18:19:00,23.8,10.8,30.10,NW,315,4.0,9.0,57,0.00,,---,0.08,VWS V14.01,2013-01-17 23:19:00,
2013-01-17 18:22:00,23.6,10.6,30.10,NNW,348,8.0,9.0,57,0.00,,---,0.08,VWS V14.01,2013-01-17 23:22:00,
2013-01-17 18:24:00,23.6,10.2,30.10,West,274,3.0,9.0,56,0.00,,---,0.08,VWS V14.01,2013-01-17 23:24:00,
2013-01-17 18:25:00,23.6,10.2,30.10,WNW,285,5.0,9.0,56,0.00,,---,0.08,VWS V14.01,2013-01-17 23:25:00,
2013-01-17 18:28:00,23.5,10.1,30.11,NW,305,1.0,10.0,56,0.00,,---,0.08,VWS V14.01,2013-01-17 23:28:00,
2013-01-17 18:30:00,23.5,10.9,30.10,WNW,286,1.0,3.0,58,0.00,,---,0.08,VWS V14.01,2013-01-17 23:30:00,
2013-01-17 18:31:00,23.5,10.5,30.11,WNW,297,4.0,5.0,57,0.00,,---,0.08,VWS V14.01,2013-01-17 23:31:00,
2013-01-17 18:33:00,23.4,10.0,30.11,West,267,1.0,6.0,56,0.00,,---,0.08,VWS V14.01,2013-01-17 23:33:00,
2013-01-17 18:35:00,23.4,10.0,30.11,NE,39,1.0,6.0,56,0.00,,---,0.08,VWS V14.01,2013-01-17 23:35:00,
2013-01-17 18:36:00,23.4,10.0,30.11,West,269,3.0,6.0,56,0.00,,---,0.08,VWS V14.01,2013-01-17 23:36:00,
2013-01-17 18:37:00,23.4,10.0,30.11,West,271,2.0,6.0,56,0.00,,---,0.08,VWS V14.01,2013-01-17 23:37:00,
2013-01-17 18:38:00,23.3,9.9,30.11,NNW,333,4.0,6.0,56,0.00,,---,0.08,VWS V14.01,2013-01-17 23:38:00,
2013-01-17 18:41:00,23.3,9.9,30.11,ESE,118,1.0,6.0,56,0.00,,---,0.08,VWS V14.01,2013-01-17 23:41:00,
2013-01-17 18:42:00,23.3,10.3,30.11,NNW,333,3.0,6.0,57,0.00,,---,0.08,VWS V14.01,2013-01-17 23:42:00,
2013-01-17 18:44:00,23.2,9.4,30.12,WNW,297,5.0,7.0,55,0.00,,---,0.08,VWS V14.01,2013-01-17 23:44:00,
2013-01-17 18:46:00,23.2,9.4,30.12,NE,56,2.0,7.0,55,0.00,,---,0.08,VWS V14.01,2013-01-17 23:46:00,
2013-01-17 18:47:00,23.2,9.4,30.12,ESE,115,0.0,7.0,55,0.00,,---,0.08,VWS V14.01,2013-01-17 23:47:00,
2013-01-17 18:48:00,23.2,9.4,30.12,NW,323,0.0,7.0,55,0.00,,---,0.08,VWS V14.01,2013-01-17 23:48:00,
2013-01-17 18:51:00,23.1,9.4,30.13,West,274,3.0,7.0,55,0.00,,---,0.08,VWS V14.01,2013-01-17 23:51:00,
2013-01-17 18:52:00,23.1,8.5,30.13,West,260,4.0,7.0,53,0.00,,---,0.08,VWS V14.01,2013-01-17 23:52:00,
2013-01-17 18:55:00,23.1,8.5,30.13,ENE,74,0.0,7.0,53,0.00,,---,0.08,VWS V14.01,2013-01-17 23:55:00,
2013-01-17 18:56:00,23.0,8.9,30.14,WNW,291,0.0,7.0,54,0.00,,---,0.08,VWS V14.01,2013-01-17 23:56:00,
2013-01-17 18:57:00,23.0,8.9,30.14,WSW,255,1.0,7.0,54,0.00,,---,0.08,VWS V14.01,2013-01-17 23:57:00,
2013-01-17 19:00:00,22.9,7.9,30.14,WNW,303,4.0,7.0,52,0.00,,---,0.08,VWS V14.01,2013-01-18 00:00:00,
2013-01-17 19:01:00,22.9,7.9,30.14,NW,304,2.0,5.0,52,0.00,,---,0.08,VWS V14.01,2013-01-18 00:01:00,
2013-01-17 19:02:00,22.8,8.2,30.14,WNW,298,4.0,5.0,53,0.00,,---,0.08,VWS V14.01,2013-01-18 00:02:00,
2013-01-17 19:03:00,22.8,8.2,30.14,WNW,302,3.0,5.0,53,0.00,,---,0.08,VWS V14.01,2013-01-18 00:03:00,
2013-01-17 19:06:00,22.7,7.3,30.14,NW,307,2.0,7.0,51,0.00,,---,0.08,VWS V14.01,2013-01-18 00:06:00,
2013-01-17 19:07:00,22.7,7.3,30.14,WNW,301,2.0,7.0,51,0.00,,---,0.08,VWS V14.01,2013-01-18 00:07:00,
2013-01-17 19:08:00,22.7,7.7,30.14,West,277,1.0,7.0,52,0.00,,---,0.08,VWS V14.01,2013-01-18 00:08:00,
2013-01-17 19:11:00,22.6,7.2,30.13,West,273,8.0,9.0,51,0.00,,---,0.08,VWS V14.01,2013-01-18 00:11:00,
2013-01-17 19:12:00,22.5,7.1,30.13,NW,314,5.0,9.0,51,0.00,,---,0.08,VWS V14.01,2013-01-18 00:12:00,
2013-01-17 19:13:00,22.5,7.1,30.13,North,352,5.0,9.0,51,0.00,,---,0.08,VWS V14.01,2013-01-18 00:13:00,
2013-01-17 19:16:00,22.5,7.1,30.13,NNW,335,2.0,9.0,51,0.00,,---,0.08,VWS V14.01,2013-01-18 00:16:00,
2013-01-17 19:18:00,22.4,7.0,30.13,NW,309,6.0,9.0,51,0.00,,---,0.08,VWS V14.01,2013-01-18 00:18:00,
2013-01-17 19:19:00,22.4,7.0,30.13,NW,307,7.0,9.0,51,0.00,,---,0.08,VWS V14.01,2013-01-18 00:19:00,
2013-01-17 19:21:00,22.3,7.4,30.13,West,279,3.0,9.0,52,0.00,,---,0.08,VWS V14.01,2013-01-18 00:21:00,
2013-01-17 19:23:00,22.3,7.4,30.13,SW,232,2.0,9.0,52,0.00,,---,0.08,VWS V14.01,2013-01-18 00:23:00,
2013-01-17 19:24:00,22.3,7.4,30.13,WNW,285,3.0,9.0,52,0.00,,---,0.08,VWS V14.01,2013-01-18 00:24:00,
2013-01-17 19:27:00,22.2,6.8,30.13,WNW,287,4.0,9.0,51,0.00,,---,0.08,VWS V14.01,2013-01-18 00:27:00,
2013-01-17 19:28:00,22.2,6.8,30.13,NNW,338,3.0,9.0,51,0.00,,---,0.08,VWS V14.01,2013-01-18 00:28:00,
2013-01-17 19:30:00,22.1,6.8,30.13,NW,319,5.0,9.0,51,0.00,,---,0.08,VWS V14.01,2013-01-18 00:30:00,
2013-01-17 19:33:00,22.0,7.1,30.12,NW,326,3.0,7.0,52,0.00,,---,0.08,VWS V14.01,2013-01-18 00:33:00,
2013-01-17 19:34:00,22.0,6.7,30.13,NW,319,4.0,7.0,51,0.00,,---,0.08,VWS V14.01,2013-01-18 00:34:00,
2013-01-17 19:35:00,21.9,6.1,30.13,West,267,5.0,7.0,50,0.00,,---,0.08,VWS V14.01,2013-01-18 00:35:00,
2013-01-17 19:38:00,21.9,6.6,30.13,NW,307,9.0,9.0,51,0.00,,---,0.08,VWS V14.01,2013-01-18 00:38:00,
2013-01-17 19:39:00,21.8,6.0,30.14,NNW,330,4.0,11.0,50,0.00,,---,0.08,VWS V14.01,2013-01-18 00:39:00,
2013-01-17 19:40:00,21.8,6.0,30.14,NW,323,8.0,11.0,50,0.00,,---,0.08,VWS V14.01,2013-01-18 00:40:00,
2013-01-17 19:43:00,21.7,5.9,30.14,NW,323,2.0,11.0,50,0.00,,---,0.08,VWS V14.01,2013-01-18 00:43:00,
2013-01-17 19:44:00,21.7,5.9,30.14,WNW,294,4.0,11.0,50,0.00,,---,0.08,VWS V14.01,2013-01-18 00:44:00,
2013-01-17 19:45:00,21.6,5.4,30.14,WNW,300,4.0,11.0,49,0.00,,---,0.08,VWS V14.01,2013-01-18 00:45:00,
2013-01-17 19:46:00,21.6,5.4,30.14,WSW,252,3.0,11.0,49,0.00,,---,0.08,VWS V14.01,2013-01-18 00:46:00,
2013-01-17 19:49:00,21.6,5.4,30.14,West,262,5.0,11.0,49,0.00,,---,0.08,VWS V14.01,2013-01-18 00:49:00,
2013-01-17 19:51:00,21.5,5.3,30.14,North,356,5.0,11.0,49,0.00,,---,0.08,VWS V14.01,2013-01-18 00:51:00,
2013-01-17 19:52:00,21.5,5.3,30.14,NNW,328,4.0,11.0,49,0.00,,---,0.08,VWS V14.01,2013-01-18 00:52:00,
2013-01-17 19:54:00,21.4,5.7,30.14,North,6,2.0,11.0,50,0.00,,---,0.08,VWS V14.01,2013-01-18 00:54:00,
2013-01-17 19:56:00,21.4,5.7,30.14,WSW,257,2.0,11.0,50,0.00,,---,0.08,VWS V14.01,2013-01-18 00:56:00,
2013-01-17 19:57:00,21.4,5.7,30.14,WNW,288,2.0,11.0,50,0.00,,---,0.08,VWS V14.01,2013-01-18 00:57:00,
2013-01-17 19:59:00,21.3,5.6,30.14,WNW,291,1.0,11.0,50,0.00,,---,0.08,VWS V14.01,2013-01-18 00:59:00,
2013-01-17 20:00:00,21.3,5.6,30.14,West,269,1.0,11.0,50,0.00,,---,0.08,VWS V14.01,2013-01-18 01:00:00,
2013-01-17 20:02:00,21.3,6.0,30.14,WNW,295,4.0,4.0,51,0.00,,---,0.08,VWS V14.01,2013-01-18 01:02:00,
2013-01-17 20:04:00,21.3,6.0,30.14,NNW,328,0.0,6.0,51,0.00,,---,0.08,VWS V14.01,2013-01-18 01:04:00,
2013-01-17 20:05:00,21.3,6.0,30.14,WSW,250,4.0,6.0,51,0.00,,---,0.08,VWS V14.01,2013-01-18 01:05:00,
2013-01-17 20:07:00,21.3,6.0,30.15,WSW,249,0.0,6.0,51,0.00,,---,0.08,VWS V14.01,2013-01-18 01:07:00,
2013-01-17 20:10:00,21.3,6.0,30.15,SW,221,0.0,6.0,51,0.00,,---,0.08,VWS V14.01,2013-01-18 01:10:00,
2013-01-17 20:12:00,21.3,6.0,30.15,NW,314,2.0,6.0,51,0.00,,---,0.08,VWS V14.01,2013-01-18 01:12:00,
2013-01-17 20:15:00,21.2,6.8,30.15,NNW,335,3.0,6.0,53,0.00,,---,0.08,VWS V14.01,2013-01-18 01:15:00,
2013-01-17 20:16:00,21.3,6.8,30.15,NNW,338,1.0,6.0,53,0.00,,---,0.08,VWS V14.01,2013-01-18 01:16:00,
2013-01-17 20:17:00,21.2,5.9,30.15,WNW,294,4.0,6.0,51,0.00,,---,0.08,VWS V14.01,2013-01-18 01:17:00,
2013-01-17 20:21:00,21.1,5.8,30.15,West,264,4.0,8.0,51,0.00,,---,0.08,VWS V14.01,2013-01-18 01:21:00,
2013-01-17 20:22:00,21.2,5.9,30.15,WSW,246,5.0,8.0,51,0.00,,---,0.08,VWS V14.01,2013-01-18 01:22:00,
2013-01-17 20:26:00,21.1,5.8,30.15,WNW,291,3.0,8.0,51,0.00,,---,0.08,VWS V14.01,2013-01-18 01:26:00,
2013-01-17 20:27:00,21.1,5.8,30.15,WNW,287,8.0,8.0,51,0.00,,---,0.08,VWS V14.01,2013-01-18 01:27:00,
2013-01-17 20:29:00,21.1,6.2,30.15,West,268,5.0,8.0,52,0.00,,---,0.08,VWS V14.01,2013-01-18 01:29:00,
2013-01-17 20:32:00,21.1,6.2,30.14,WNW,288,2.0,4.0,52,0.00,,---,0.08,VWS V14.01,2013-01-18 01:32:00,
2013-01-17 20:33:00,21.1,6.2,30.14,WNW,298,6.0,6.0,52,0.00,,---,0.08,VWS V14.01,2013-01-18 01:33:00,
2013-01-17 20:34:00,21.1,5.8,30.14,North,352,3.0,8.0,51,0.00,,---,0.08,VWS V14.01,2013-01-18 01:34:00,
2013-01-17 20:38:00,21.0,5.7,30.14,NNW,345,6.0,8.0,51,0.00,,---,0.08,VWS V14.01,2013-01-18 01:38:00,
2013-01-17 20:39:00,20.9,5.2,30.14,NW,307,3.0,8.0,50,0.00,,---,0.08,VWS V14.01,2013-01-18 01:39:00,
2013-01-17 20:43:00,20.9,5.2,30.13,WNW,301,6.0,8.0,50,0.00,,---,0.08,VWS V14.01,2013-01-18 01:43:00,
2013-01-17 20:44:00,20.9,5.2,30.13,NW,320,3.0,8.0,50,0.00,,---,0.08,VWS V14.01,2013-01-18 01:44:00,
2013-01-17 20:49:00,20.9,5.6,30.13,SSW,207,0.0,8.0,51,0.00,,---,0.08,VWS V14.01,2013-01-18 01:49:00,
2013-01-17 20:50:00,20.9,5.6,30.13,West,269,1.0,8.0,51,0.00,,---,0.08,VWS V14.01,2013-01-18 01:50:00,
2013-01-17 20:54:00,20.8,5.1,30.13,NW,307,4.0,8.0,50,0.00,,---,0.08,VWS V14.01,2013-01-18 01:54:00,
2013-01-17 20:55:00,20.8,5.1,30.13,NW,307,3.0,8.0,50,0.00,,---,0.08,VWS V14.01,2013-01-18 01:55:00,
2013-01-17 20:56:00,20.8,5.5,30.13,WSW,255,2.0,8.0,51,0.00,,---,0.08,VWS V14.01,2013-01-18 01:56:00,
2013-01-17 21:00:00,20.8,4.7,30.12,NW,319,3.0,3.0,49,0.00,,---,0.08,VWS V14.01,2013-01-18 02:00:00,
2013-01-17 21:01:00,20.7,4.6,30.12,SSW,198,0.0,3.0,49,0.00,,---,0.08,VWS V14.01,2013-01-18 02:01:00,
2013-01-17 21:02:00,20.7,4.6,30.12,NW,324,2.0,3.0,49,0.00,,---,0.08,VWS V14.01,2013-01-18 02:02:00,
2013-01-17 21:05:00,20.6,4.5,30.11,NNE,21,1.0,3.0,49,0.00,,---,0.08,VWS V14.01,2013-01-18 02:05:00,
2013-01-17 21:06:00,20.6,4.5,30.11,NW,316,2.0,3.0,49,0.00,,---,0.08,VWS V14.01,2013-01-18 02:06:00,
2013-01-17 21:07:00,20.6,4.9,30.11,NW,311,0.0,4.0,50,0.00,,---,0.08,VWS V14.01,2013-01-18 02:07:00,
2013-01-17 21:08:00,20.6,4.5,30.11,West,262,6.0,10.0,49,0.00,,---,0.08,VWS V14.01,2013-01-18 02:08:00,
2013-01-17 21:10:00,20.5,3.9,30.12,NW,317,2.0,10.0,48,0.00,,---,0.08,VWS V14.01,2013-01-18 02:10:00,
2013-01-17 21:11:00,20.5,4.4,30.12,WNW,297,1.0,10.0,49,0.00,,---,0.08,VWS V14.01,2013-01-18 02:11:00,
2013-01-17 21:12:00,20.5,4.4,30.12,WNW,296,1.0,10.0,49,0.00,,---,0.08,VWS V14.01,2013-01-18 02:12:00,
2013-01-17 21:13:00,20.5,4.4,30.13,West,278,0.0,10.0,49,0.00,,---,0.08,VWS V14.01,2013-01-18 02:13:00,
2013-01-17 21:16:00,20.4,4.3,30.12,WNW,302,3.0,10.0,49,0.00,,---,0.08,VWS V14.01,2013-01-18 02:16:00,
2013-01-17 21:17:00,20.4,4.3,30.12,SW,233,2.0,10.0,49,0.00,,---,0.08,VWS V14.01,2013-01-18 02:17:00,
2013-01-17 21:18:00,20.4,3.8,30.11,NW,304,6.0,10.0,48,0.00,,---,0.08,VWS V14.01,2013-01-18 02:18:00,
2013-01-17 21:22:00,20.3,3.8,30.12,WNW,285,1.0,10.0,48,0.00,,---,0.08,VWS V14.01,2013-01-18 02:22:00,
2013-01-17 21:23:00,20.4,4.3,30.12,West,277,1.0,10.0,49,0.00,,---,0.08,VWS V14.01,2013-01-18 02:23:00,
2013-01-17 21:27:00,20.4,4.7,30.12,NW,318,6.0,10.0,50,0.00,,---,0.08,VWS V14.01,2013-01-18 02:27:00,
2013-01-17 21:28:00,20.3,4.2,30.12,NW,316,4.0,10.0,49,0.00,,---,0.08,VWS V14.01,2013-01-18 02:28:00,
2013-01-17 21:32:00,20.3,4.6,30.12,NW,308,2.0,4.0,50,0.00,,---,0.08,VWS V14.01,2013-01-18 02:32:00,
2013-01-17 21:33:00,20.2,4.6,30.12,NW,315,2.0,4.0,50,0.00,,---,0.08,VWS V14.01,2013-01-18 02:33:00,
2013-01-17 21:34:00,20.2,4.6,30.13,NW,311,1.0,4.0,50,0.00,,---,0.08,VWS V14.01,2013-01-18 02:34:00,
2013-01-17 21:37:00,20.2,4.6,30.13,NW,312,0.0,7.0,50,0.00,,---,0.08,VWS V14.01,2013-01-18 02:37:00,
2013-01-17 21:38:00,20.2,5.0,30.13,SW,233,3.0,7.0,51,0.00,,---,0.08,VWS V14.01,2013-01-18 02:38:00,
2013-01-17 21:40:00,20.2,5.0,30.12,NNE,18,1.0,7.0,51,0.00,,---,0.08,VWS V14.01,2013-01-18 02:40:00,
2013-01-17 21:43:00,20.2,5.0,30.13,NW,309,3.0,7.0,51,0.00,,---,0.08,VWS V14.01,2013-01-18 02:43:00,
2013-01-17 21:45:00,20.2,4.6,30.13,NW,313,4.0,7.0,50,0.00,,---,0.08,VWS V14.01,2013-01-18 02:45:00,
2013-01-17 21:46:00,20.1,4.5,30.13,West,271,1.0,7.0,50,0.00,,---,0.08,VWS V14.01,2013-01-18 02:46:00,
2013-01-17 21:48:00,20.1,4.0,30.13,SE,135,0.0,7.0,49,0.00,,---,0.08,VWS V14.01,2013-01-18 02:48:00,
2013-01-17 21:49:00,20.1,4.5,30.12,SE,135,0.0,7.0,50,0.00,,---,0.08,VWS V14.01,2013-01-18 02:49:00,
2013-01-17 21:51:00,20.1,4.5,30.12,West,276,1.0,7.0,50,0.00,,---,0.08,VWS V14.01,2013-01-18 02:51:00,
2013-01-17 21:52:00,20.1,3.6,30.12,NW,323,4.0,7.0,48,0.00,,---,0.08,VWS V14.01,2013-01-18 02:52:00,
2013-01-17 21:54:00,20.0,3.5,30.12,NW,311,0.0,7.0,48,0.00,,---,0.08,VWS V14.01,2013-01-18 02:54:00,
2013-01-17 21:57:00,19.9,4.3,30.12,NNW,333,0.0,7.0,50,0.00,,---,0.08,VWS V14.01,2013-01-18 02:57:00,
2013-01-17 21:59:00,19.9,3.8,30.12,NNW,333,0.0,7.0,49,0.00,,---,0.08,VWS V14.01,2013-01-18 02:59:00,
2013-01-17 22:01:00,19.9,3.8,30.12,West,274,0.0,2.0,49,0.00,,---,0.08,VWS V14.01,2013-01-18 03:01:00,
2013-01-17 22:02:00,19.9,3.8,30.12,NNW,335,1.0,3.0,49,0.00,,---,0.08,VWS V14.01,2013-01-18 03:02:00,
2013-01-17 22:03:00,19.8,3.7,30.12,NNW,335,0.0,3.0,49,0.00,,---,0.08,VWS V14.01,2013-01-18 03:03:00,
2013-01-17 22:04:00,19.8,3.7,30.12,NNW,339,1.0,3.0,49,0.00,,---,0.08,VWS V14.01,2013-01-18 03:04:00,
2013-01-17 22:07:00,19.8,3.7,30.12,NE,44,0.0,3.0,49,0.00,,---,0.08,VWS V14.01,2013-01-18 03:07:00,
2013-01-17 22:08:00,19.8,4.2,30.11,NE,44,0.0,3.0,50,0.00,,---,0.08,VWS V14.01,2013-01-18 03:08:00,
2013-01-17 22:10:00,19.7,4.1,30.11,NW,311,2.0,3.0,50,0.00,,---,0.08,VWS V14.01,2013-01-18 03:10:00,
2013-01-17 22:12:00,19.7,4.1,30.12,NW,309,1.0,3.0,50,0.00,,---,0.08,VWS V14.01,2013-01-18 03:12:00,
2013-01-17 22:13:00,19.7,4.1,30.12,NW,311,0.0,3.0,50,0.00,,---,0.08,VWS V14.01,2013-01-18 03:13:00,
2013-01-17 22:14:00,19.7,4.1,30.12,NW,312,0.0,3.0,50,0.00,,---,0.08,VWS V14.01,2013-01-18 03:14:00,
2013-01-17 22:15:00,19.7,4.5,30.11,NW,312,0.0,3.0,51,0.00,,---,0.08,VWS V14.01,2013-01-18 03:15:00,
2013-01-17 22:18:00,19.7,4.1,30.12,NW,320,0.0,3.0,50,0.00,,---,0.08,VWS V14.01,2013-01-18 03:18:00,
2013-01-17 22:19:00,19.7,4.1,30.12,North,6,0.0,3.0,50,0.00,,---,0.08,VWS V14.01,2013-01-18 03:19:00,
2013-01-17 22:20:00,19.6,4.0,30.11,NNW,329,1.0,3.0,50,0.00,,---,0.08,VWS V14.01,2013-01-18 03:20:00,
2013-01-17 22:22:00,19.6,4.0,30.12,NW,323,1.0,3.0,50,0.00,,---,0.08,VWS V14.01,2013-01-18 03:22:00,
2013-01-17 22:23:00,19.6,4.4,30.13,NW,304,0.0,3.0,51,0.00,,---,0.08,VWS V14.01,2013-01-18 03:23:00,
2013-01-17 22:24:00,19.6,4.4,30.13,NW,304,0.0,3.0,51,0.00,,---,0.08,VWS V14.01,2013-01-18 03:24:00,
2013-01-17 22:25:00,19.6,4.4,30.12,NNW,332,1.0,3.0,51,0.00,,---,0.08,VWS V14.01,2013-01-18 03:25:00,
2013-01-17 22:27:00,19.6,4.4,30.12,West,280,1.0,3.0,51,0.00,,---,0.08,VWS V14.01,2013-01-18 03:27:00,
2013-01-17 22:28:00,19.6,4.4,30.12,West,271,1.0,3.0,51,0.00,,---,0.08,VWS V14.01,2013-01-18 03:28:00,
2013-01-17 22:29:00,19.5,4.3,30.12,West,270,3.0,5.0,51,0.00,,---,0.08,VWS V14.01,2013-01-18 03:29:00,
2013-01-17 22:31:00,19.5,4.3,30.12,WNW,289,3.0,3.0,51,0.00,,---,0.08,VWS V14.01,2013-01-18 03:31:00,
2013-01-17 22:32:00,19.5,4.3,30.12,West,280,0.0,4.0,51,0.00,,---,0.08,VWS V14.01,2013-01-18 03:32:00,
2013-01-17 22:33:00,19.5,4.8,30.12,WNW,302,2.0,4.0,52,0.00,,---,0.08,VWS V14.01,2013-01-18 03:33:00,
2013-01-17 22:36:00,19.6,4.8,30.12,West,280,6.0,7.0,52,0.00,,---,0.08,VWS V14.01,2013-01-18 03:36:00,
2013-01-17 22:38:00,19.5,3.9,30.12,NW,323,0.0,7.0,50,0.00,,---,0.08,VWS V14.01,2013-01-18 03:38:00,
2013-01-17 22:39:00,19.5,4.3,30.12,NW,316,2.0,7.0,51,0.00,,---,0.08,VWS V14.01,2013-01-18 03:39:00,
2013-01-17 22:41:00,19.5,4.3,30.12,WNW,302,2.0,7.0,51,0.00,,---,0.08,VWS V14.01,2013-01-18 03:41:00,
2013-01-17 22:42:00,19.5,4.3,30.12,West,264,1.0,7.0,51,0.00,,---,0.08,VWS V14.01,2013-01-18 03:42:00,
2013-01-17 22:44:00,19.5,4.8,30.12,WNW,297,2.0,7.0,52,0.00,,---,0.08,VWS V14.01,2013-01-18 03:44:00,
2013-01-17 22:45:00,19.5,4.8,30.12,West,274,2.0,7.0,52,0.00,,---,0.08,VWS V14.01,2013-01-18 03:45:00,
2013-01-17 22:47:00,19.5,4.8,30.11,WNW,293,1.0,7.0,52,0.00,,---,0.08,VWS V14.01,2013-01-18 03:47:00,
2013-01-17 22:48:00,19.4,4.7,30.11,WNW,294,1.0,7.0,52,0.00,,---,0.08,VWS V14.01,2013-01-18 03:48:00,
2013-01-17 22:49:00,19.4,4.7,30.11,NW,311,2.0,7.0,52,0.00,,---,0.08,VWS V14.01,2013-01-18 03:49:00,
2013-01-17 22:51:00,19.4,4.7,30.11,WNW,291,3.0,7.0,52,0.00,,---,0.08,VWS V14.01,2013-01-18 03:51:00,
2013-01-17 22:53:00,19.4,4.2,30.12,West,266,1.0,7.0,51,0.00,,---,0.08,VWS V14.01,2013-01-18 03:53:00,
2013-01-17 22:54:00,19.4,4.2,30.12,West,269,0.0,7.0,51,0.00,,---,0.08,VWS V14.01,2013-01-18 03:54:00,
2013-01-17 22:56:00,19.3,4.1,30.12,WNW,293,2.0,7.0,51,0.00,,---,0.08,VWS V14.01,2013-01-18 03:56:00,
2013-01-17 22:59:00,19.3,4.6,30.12,West,266,3.0,7.0,52,0.00,,---,0.08,VWS V14.01,2013-01-18 03:59:00,
2013-01-17 23:00:00,19.3,4.1,30.12,NW,315,1.0,1.0,51,0.00,,---,0.08,VWS V14.01,2013-01-18 04:00:00,
2013-01-17 23:03:00,19.3,4.1,30.12,NNW,336,2.0,5.0,51,0.00,,---,0.08,VWS V14.01,2013-01-18 04:03:00,
2013-01-17 23:05:00,19.3,4.6,30.12,North,357,1.0,5.0,52,0.00,,---,0.08,VWS V14.01,2013-01-18 04:05:00,
2013-01-17 23:08:00,19.2,4.1,30.12,WNW,297,6.0,10.0,51,0.00,,---,0.08,VWS V14.01,2013-01-18 04:08:00,
2013-01-17 23:10:00,19.1,3.5,30.12,WNW,290,3.0,10.0,50,0.00,,---,0.08,VWS V14.01,2013-01-18 04:10:00,
2013-01-17 23:11:00,19.1,3.1,30.12,WNW,300,4.0,10.0,49,0.00,,---,0.08,VWS V14.01,2013-01-18 04:11:00,
2013-01-17 23:14:00,19.0,2.6,30.11,West,276,3.0,10.0,48,0.00,,---,0.08,VWS V14.01,2013-01-18 04:14:00,
2013-01-17 23:16:00,19.0,2.6,30.12,NW,313,5.0,10.0,48,0.00,,---,0.08,VWS V14.01,2013-01-18 04:16:00,
2013-01-17 23:17:00,18.9,2.5,30.12,NW,320,3.0,10.0,48,0.00,,---,0.08,VWS V14.01,2013-01-18 04:17:00,
2013-01-17 23:19:00,18.9,2.9,30.12,WNW,298,1.0,10.0,49,0.00,,---,0.08,VWS V14.01,2013-01-18 04:19:00,
2013-01-17 23:21:00,18.9,2.9,30.11,North,349,1.0,10.0,49,0.00,,---,0.08,VWS V14.01,2013-01-18 04:21:00,
2013-01-17 23:22:00,18.9,2.9,30.11,North,350,0.0,10.0,49,0.00,,---,0.08,VWS V14.01,2013-01-18 04:22:00,
2013-01-17 23:24:00,18.9,3.3,30.11,SW,235,2.0,10.0,50,0.00,,---,0.08,VWS V14.01,2013-01-18 04:24:00,
2013-01-17 23:27:00,18.9,3.3,30.11,ENE,75,0.0,10.0,50,0.00,,---,0.08,VWS V14.01,2013-01-18 04:27:00,
2013-01-17 23:28:00,18.9,3.3,30.11,ENE,63,1.0,10.0,50,0.00,,---,0.08,VWS V14.01,2013-01-18 04:28:00,
2013-01-17 23:30:00,18.9,3.8,30.11,NE,52,1.0,10.0,51,0.00,,---,0.08,VWS V14.01,2013-01-18 04:30:00,
2013-01-17 23:32:00,18.9,3.8,30.10,WNW,302,2.0,2.0,51,0.00,,---,0.08,VWS V14.01,2013-01-18 04:32:00,
2013-01-17 23:33:00,18.9,3.3,30.10,West,279,1.0,3.0,50,0.00,,---,0.08,VWS V14.01,2013-01-18 04:33:00,
2013-01-17 23:35:00,18.8,2.4,30.10,West,262,1.0,3.0,48,0.00,,---,0.08,VWS V14.01,2013-01-18 04:35:00,
2013-01-17 23:37:00,18.8,2.8,30.11,NNW,330,1.0,3.0,49,0.00,,---,0.08,VWS V14.01,2013-01-18 04:37:00,
2013-01-17 23:38:00,18.8,2.8,30.11,NW,321,0.0,3.0,49,0.00,,---,0.08,VWS V14.01,2013-01-18 04:38:00,
2013-01-17 23:40:00,18.8,3.7,30.11,West,263,2.0,3.0,51,0.00,,---,0.08,VWS V14.01,2013-01-18 04:40:00,
2013-01-17 23:43:00,18.8,3.2,30.11,NW,316,4.0,6.0,50,0.00,,---,0.08,VWS V14.01,2013-01-18 04:43:00,
2013-01-17 23:44:00,18.8,2.8,30.11,West,274,5.0,6.0,49,0.00,,---,0.08,VWS V14.01,2013-01-18 04:44:00,
2013-01-17 23:46:00,18.7,3.2,30.10,West,264,4.0,6.0,50,0.00,,---,0.08,VWS V14.01,2013-01-18 04:46:00,
2013-01-17 23:48:00,18.6,2.6,30.11,WNW,283,4.0,6.0,49,0.00,,---,0.08,VWS V14.01,2013-01-18 04:48:00,
2013-01-17 23:49:00,18.6,2.2,30.11,NW,319,4.0,6.0,48,0.00,,---,0.08,VWS V14.01,2013-01-18 04:49:00,
2013-01-17 23:50:00,18.5,2.1,30.11,NW,307,6.0,6.0,48,0.00,,---,0.08,VWS V14.01,2013-01-18 04:50:00,
2013-01-17 23:51:00,18.5,1.6,30.11,NW,314,5.0,6.0,47,0.00,,---,0.08,VWS V14.01,2013-01-18 04:51:00,
2013-01-17 23:53:00,18.4,2.0,30.10,North,349,1.0,6.0,48,0.00,,---,0.08,VWS V14.01,2013-01-18 04:53:00,
2013-01-17 23:54:00,18.4,2.4,30.10,WNW,303,3.0,6.0,49,0.00,,---,0.08,VWS V14.01,2013-01-18 04:54:00,
2013-01-17 23:56:00,18.4,2.4,30.10,NW,311,1.0,6.0,49,0.00,,---,0.08,VWS V14.01,2013-01-18 04:56:00,
2013-01-17 23:57:00,18.4,2.9,30.10,WNW,300,1.0,6.0,50,0.00,,---,0.08,VWS V14.01,2013-01-18 04:57:00,
2013-01-17 23:58:00,18.3,2.8,30.10,WNW,298,3.0,6.0,50,0.00,,---,0.08,VWS V14.01,2013-01-18 04:58:00,
2013-01-17 23:59:00,18.3,2.8,30.10,WNW,294,0.0,6.0,50,0.00,,---,0.08,VWS V14.01,2013-01-18 04:59:00,